﻿<?xml version="1.0" encoding="utf-8"?><gpx creator="Garmin Desktop App" version="1.1" xsi:schemaLocation="http://www.topografix.com/GPX/1/1 http://www.topografix.com/GPX/1/1/gpx.xsd http://www.garmin.com/xmlschemas/WaypointExtension/v1 http://www8.garmin.com/xmlschemas/WaypointExtensionv1.xsd http://www.garmin.com/xmlschemas/TrackPointExtension/v1 http://www.garmin.com/xmlschemas/TrackPointExtensionv1.xsd http://www.garmin.com/xmlschemas/GpxExtensions/v3 http://www8.garmin.com/xmlschemas/GpxExtensionsv3.xsd http://www.garmin.com/xmlschemas/ActivityExtension/v1 http://www8.garmin.com/xmlschemas/ActivityExtensionv1.xsd http://www.garmin.com/xmlschemas/AdventuresExtensions/v1 http://www8.garmin.com/xmlschemas/AdventuresExtensionv1.xsd http://www.garmin.com/xmlschemas/PressureExtension/v1 http://www.garmin.com/xmlschemas/PressureExtensionv1.xsd http://www.garmin.com/xmlschemas/TripExtensions/v1 http://www.garmin.com/xmlschemas/TripExtensionsv1.xsd http://www.garmin.com/xmlschemas/TripMetaDataExtensions/v1 http://www.garmin.com/xmlschemas/TripMetaDataExtensionsv1.xsd http://www.garmin.com/xmlschemas/ViaPointTransportationModeExtensions/v1 http://www.garmin.com/xmlschemas/ViaPointTransportationModeExtensionsv1.xsd http://www.garmin.com/xmlschemas/CreationTimeExtension/v1 http://www.garmin.com/xmlschemas/CreationTimeExtensionsv1.xsd http://www.garmin.com/xmlschemas/AccelerationExtension/v1 http://www.garmin.com/xmlschemas/AccelerationExtensionv1.xsd http://www.garmin.com/xmlschemas/PowerExtension/v1 http://www.garmin.com/xmlschemas/PowerExtensionv1.xsd http://www.garmin.com/xmlschemas/VideoExtension/v1 http://www.garmin.com/xmlschemas/VideoExtensionv1.xsd" xmlns="http://www.topografix.com/GPX/1/1" xmlns:xsi="http://www.w3.org/2001/XMLSchema-instance" xmlns:wptx1="http://www.garmin.com/xmlschemas/WaypointExtension/v1" xmlns:gpxtrx="http://www.garmin.com/xmlschemas/GpxExtensions/v3" xmlns:gpxtpx="http://www.garmin.com/xmlschemas/TrackPointExtension/v1" xmlns:gpxx="http://www.garmin.com/xmlschemas/GpxExtensions/v3" xmlns:trp="http://www.garmin.com/xmlschemas/TripExtensions/v1" xmlns:adv="http://www.garmin.com/xmlschemas/AdventuresExtensions/v1" xmlns:prs="http://www.garmin.com/xmlschemas/PressureExtension/v1" xmlns:tmd="http://www.garmin.com/xmlschemas/TripMetaDataExtensions/v1" xmlns:vptm="http://www.garmin.com/xmlschemas/ViaPointTransportationModeExtensions/v1" xmlns:ctx="http://www.garmin.com/xmlschemas/CreationTimeExtension/v1" xmlns:gpxacc="http://www.garmin.com/xmlschemas/AccelerationExtension/v1" xmlns:gpxpx="http://www.garmin.com/xmlschemas/PowerExtension/v1" xmlns:vidx1="http://www.garmin.com/xmlschemas/VideoExtension/v1">

  <metadata>
    <link href="http://www.garmin.com">
      <text>Garmin International</text>
    </link>
    <time>2026-08-29T16:43:28Z</time>
    <bounds maxlat="60.254849782213569" maxlon="30.494181895628572" minlat="60.245472444221377" minlon="30.477551445364952" />
  </metadata>

  <trk>
    <name>Трек 045</name>
    <extensions>
      <gpxx:TrackExtension>
        <gpxx:DisplayColor>Magenta</gpxx:DisplayColor>
      </gpxx:TrackExtension>
    </extensions>
    <trkseg>
      <trkpt lat="60.254849782213569" lon="30.48794349655509">
        <ele>73.200000000000003</ele>
        <time>2026-08-29T07:51:13Z</time>
      </trkpt>
      <trkpt lat="60.25477115996182" lon="30.487924134358764">
        <ele>73.200000000000003</ele>
        <time>2026-08-29T07:51:20Z</time>
      </trkpt>
      <trkpt lat="60.254744086414576" lon="30.487913573160768">
        <ele>73.200000000000003</ele>
        <time>2026-08-29T07:51:23Z</time>
      </trkpt>
      <trkpt lat="60.25472573004663" lon="30.487889181822538">
        <ele>73.200000000000003</ele>
        <time>2026-08-29T07:51:25Z</time>
      </trkpt>
      <trkpt lat="60.254715504124761" lon="30.487878369167447">
        <ele>73.200000000000003</ele>
        <time>2026-08-29T07:51:26Z</time>
      </trkpt>
      <trkpt lat="60.254700500518084" lon="30.487875770777464">
        <ele>73.200000000000003</ele>
        <time>2026-08-29T07:51:27Z</time>
      </trkpt>
      <trkpt lat="60.254646185785532" lon="30.487947687506676">
        <ele>73.200000000000003</ele>
        <time>2026-08-29T07:51:41Z</time>
      </trkpt>
      <trkpt lat="60.254571670666337" lon="30.487918853759766">
        <ele>73.200000000000003</ele>
        <time>2026-08-29T07:51:52Z</time>
      </trkpt>
      <trkpt lat="60.254539148882031" lon="30.487915249541402">
        <ele>73.200000000000003</ele>
        <time>2026-08-29T07:51:56Z</time>
      </trkpt>
      <trkpt lat="60.254529258236289" lon="30.487909382209182">
        <ele>73.200000000000003</ele>
        <time>2026-08-29T07:51:57Z</time>
      </trkpt>
      <trkpt lat="60.254517272114754" lon="30.487903263419867">
        <ele>73.200000000000003</ele>
        <time>2026-08-29T07:51:58Z</time>
      </trkpt>
      <trkpt lat="60.254504699259996" lon="30.487902173772454">
        <ele>73.200000000000003</ele>
        <time>2026-08-29T07:51:59Z</time>
      </trkpt>
      <trkpt lat="60.254367906600237" lon="30.48789169639349">
        <ele>73.200000000000003</ele>
        <time>2026-08-29T07:52:11Z</time>
      </trkpt>
      <trkpt lat="60.254354495555162" lon="30.487887589260936">
        <ele>73.200000000000003</ele>
        <time>2026-08-29T07:52:12Z</time>
      </trkpt>
      <trkpt lat="60.254335217177868" lon="30.487876692786813">
        <ele>73.200000000000003</ele>
        <time>2026-08-29T07:52:13Z</time>
      </trkpt>
      <trkpt lat="60.254075210541487" lon="30.487844338640571">
        <ele>73.200000000000003</ele>
        <time>2026-08-29T07:52:32Z</time>
      </trkpt>
      <trkpt lat="60.253912517800927" lon="30.487850876525044">
        <ele>73.200000000000003</ele>
        <time>2026-08-29T07:52:45Z</time>
      </trkpt>
      <trkpt lat="60.253811767324805" lon="30.487949531525373">
        <ele>73.200000000000003</ele>
        <time>2026-08-29T07:53:02Z</time>
      </trkpt>
      <trkpt lat="60.253793662413955" lon="30.487944502383471">
        <ele>73.200000000000003</ele>
        <time>2026-08-29T07:53:23Z</time>
      </trkpt>
      <trkpt lat="60.253827860578895" lon="30.487777534872293">
        <ele>73.200000000000003</ele>
        <time>2026-08-29T07:53:41Z</time>
      </trkpt>
      <trkpt lat="60.253925425931811" lon="30.487663960084319">
        <ele>73.200000000000003</ele>
        <time>2026-08-29T07:54:08Z</time>
      </trkpt>
      <trkpt lat="60.253822412341833" lon="30.487354835495353">
        <ele>73.200000000000003</ele>
        <time>2026-08-29T07:54:38Z</time>
      </trkpt>
      <trkpt lat="60.253757704049349" lon="30.487306639552116">
        <ele>73.200000000000003</ele>
        <time>2026-08-29T07:54:53Z</time>
      </trkpt>
      <trkpt lat="60.253797601908445" lon="30.487121818587184">
        <ele>73.200000000000003</ele>
        <time>2026-08-29T07:55:14Z</time>
      </trkpt>
      <trkpt lat="60.253757201135159" lon="30.486669111996889">
        <ele>73.200000000000003</ele>
        <time>2026-08-29T07:55:38Z</time>
      </trkpt>
      <trkpt lat="60.25372208096087" lon="30.486582191661">
        <ele>73.680000000000007</ele>
        <time>2026-08-29T07:55:59Z</time>
      </trkpt>
      <trkpt lat="60.253690481185913" lon="30.486576659604907">
        <ele>73.680000000000007</ele>
        <time>2026-08-29T07:56:23Z</time>
      </trkpt>
      <trkpt lat="60.253692995756865" lon="30.486369039863348">
        <ele>73.680000000000007</ele>
        <time>2026-08-29T07:56:52Z</time>
      </trkpt>
      <trkpt lat="60.253705065697432" lon="30.48619419336319">
        <ele>73.680000000000007</ele>
        <time>2026-08-29T07:57:14Z</time>
      </trkpt>
      <trkpt lat="60.253666760399938" lon="30.486151026561856">
        <ele>74.159999999999997</ele>
        <time>2026-08-29T07:57:53Z</time>
      </trkpt>
      <trkpt lat="60.253659384325147" lon="30.48618639819324">
        <ele>74.159999999999997</ele>
        <time>2026-08-29T07:58:21Z</time>
      </trkpt>
      <trkpt lat="60.253676902502775" lon="30.486220261082053">
        <ele>74.159999999999997</ele>
        <time>2026-08-29T07:58:57Z</time>
      </trkpt>
      <trkpt lat="60.253665754571557" lon="30.486147757619619">
        <ele>74.640000000000001</ele>
        <time>2026-08-29T07:59:29Z</time>
      </trkpt>
      <trkpt lat="60.253693833947182" lon="30.486013647168875">
        <ele>74.640000000000001</ele>
        <time>2026-08-29T07:59:43Z</time>
      </trkpt>
      <trkpt lat="60.253742448985577" lon="30.485656829550862">
        <ele>74.640000000000001</ele>
        <time>2026-08-29T08:00:16Z</time>
      </trkpt>
      <trkpt lat="60.253685619682074" lon="30.48556043766439">
        <ele>75.120000000000005</ele>
        <time>2026-08-29T08:00:28Z</time>
      </trkpt>
      <trkpt lat="60.25372551754117" lon="30.485306801274419">
        <ele>75.120000000000005</ele>
        <time>2026-08-29T08:00:43Z</time>
      </trkpt>
      <trkpt lat="60.253703892230988" lon="30.485295401886106">
        <ele>75.599999999999994</ele>
        <time>2026-08-29T08:01:43Z</time>
      </trkpt>
      <trkpt lat="60.25367128662765" lon="30.48539531417191">
        <ele>75.599999999999994</ele>
        <time>2026-08-29T08:01:58Z</time>
      </trkpt>
      <trkpt lat="60.253543797880411" lon="30.485358014702797">
        <ele>75.599999999999994</ele>
        <time>2026-08-29T08:02:15Z</time>
      </trkpt>
      <trkpt lat="60.253399629145861" lon="30.485379723832011">
        <ele>75.599999999999994</ele>
        <time>2026-08-29T08:02:32Z</time>
      </trkpt>
      <trkpt lat="60.25330382399261" lon="30.485262209549546">
        <ele>75.599999999999994</ele>
        <time>2026-08-29T08:02:52Z</time>
      </trkpt>
      <trkpt lat="60.253181951120496" lon="30.485313590615988">
        <ele>75.599999999999994</ele>
        <time>2026-08-29T08:03:11Z</time>
      </trkpt>
      <trkpt lat="60.25315772742033" lon="30.485470751300454">
        <ele>76.079999999999998</ele>
        <time>2026-08-29T08:04:17Z</time>
      </trkpt>
      <trkpt lat="60.253086732700467" lon="30.485476534813643">
        <ele>76.079999999999998</ele>
        <time>2026-08-29T08:04:39Z</time>
      </trkpt>
      <trkpt lat="60.253079356625676" lon="30.485624726861715">
        <ele>76.079999999999998</ele>
        <time>2026-08-29T08:05:02Z</time>
      </trkpt>
      <trkpt lat="60.253063514828682" lon="30.485772583633661">
        <ele>76.560000000000002</ele>
        <time>2026-08-29T08:05:14Z</time>
      </trkpt>
      <trkpt lat="60.253024203702807" lon="30.485831424593925">
        <ele>76.560000000000002</ele>
        <time>2026-08-29T08:05:38Z</time>
      </trkpt>
      <trkpt lat="60.252962177619338" lon="30.485996128991246">
        <ele>76.560000000000002</ele>
        <time>2026-08-29T08:06:00Z</time>
      </trkpt>
      <trkpt lat="60.25293929502368" lon="30.486147506162524">
        <ele>76.560000000000002</ele>
        <time>2026-08-29T08:06:15Z</time>
      </trkpt>
      <trkpt lat="60.253001237288117" lon="30.486362082883716">
        <ele>76.560000000000002</ele>
        <time>2026-08-29T08:06:35Z</time>
      </trkpt>
      <trkpt lat="60.253073740750551" lon="30.486637847498059">
        <ele>76.560000000000002</ele>
        <time>2026-08-29T08:06:55Z</time>
      </trkpt>
      <trkpt lat="60.253060413524508" lon="30.486934818327427">
        <ele>76.560000000000002</ele>
        <time>2026-08-29T08:07:15Z</time>
      </trkpt>
      <trkpt lat="60.253067370504141" lon="30.487127937376499">
        <ele>76.560000000000002</ele>
        <time>2026-08-29T08:07:37Z</time>
      </trkpt>
      <trkpt lat="60.252954382449389" lon="30.487365983426571">
        <ele>77.040000000000006</ele>
        <time>2026-08-29T08:08:00Z</time>
      </trkpt>
      <trkpt lat="60.252837706357241" lon="30.487405378371477">
        <ele>77.040000000000006</ele>
        <time>2026-08-29T08:08:17Z</time>
      </trkpt>
      <trkpt lat="60.252775344997644" lon="30.487588942050934">
        <ele>77.519999999999996</ele>
        <time>2026-08-29T08:08:36Z</time>
      </trkpt>
      <trkpt lat="60.252754054963589" lon="30.487749455496669">
        <ele>78.480000000000004</ele>
        <time>2026-08-29T08:08:55Z</time>
      </trkpt>
      <trkpt lat="60.25285673327744" lon="30.487859174609184">
        <ele>78.969999999999999</ele>
        <time>2026-08-29T08:09:21Z</time>
      </trkpt>
      <trkpt lat="60.25286796502769" lon="30.487871915102005">
        <ele>78.969999999999999</ele>
        <time>2026-08-29T08:09:57Z</time>
      </trkpt>
      <trkpt lat="60.252818930894136" lon="30.487989177927375">
        <ele>79.450000000000003</ele>
        <time>2026-08-29T08:10:30Z</time>
      </trkpt>
      <trkpt lat="60.252878358587623" lon="30.488106105476618">
        <ele>79.450000000000003</ele>
        <time>2026-08-29T08:10:46Z</time>
      </trkpt>
      <trkpt lat="60.252942647784948" lon="30.488438867032528">
        <ele>79.450000000000003</ele>
        <time>2026-08-29T08:11:08Z</time>
      </trkpt>
      <trkpt lat="60.252790348604321" lon="30.488694179803133">
        <ele>79.450000000000003</ele>
        <time>2026-08-29T08:11:31Z</time>
      </trkpt>
      <trkpt lat="60.252683982253075" lon="30.488970279693604">
        <ele>80.409999999999997</ele>
        <time>2026-08-29T08:11:52Z</time>
      </trkpt>
      <trkpt lat="60.252639474347234" lon="30.489214109256864">
        <ele>80.890000000000001</ele>
        <time>2026-08-29T08:12:08Z</time>
      </trkpt>
      <trkpt lat="60.25260753929615" lon="30.489442767575383">
        <ele>80.890000000000001</ele>
        <time>2026-08-29T08:12:26Z</time>
      </trkpt>
      <trkpt lat="60.25257233530283" lon="30.489572938531637">
        <ele>80.890000000000001</ele>
        <time>2026-08-29T08:13:16Z</time>
      </trkpt>
      <trkpt lat="60.252581303939223" lon="30.489540081471205">
        <ele>80.890000000000001</ele>
        <time>2026-08-29T08:13:38Z</time>
      </trkpt>
      <trkpt lat="60.252605024725199" lon="30.489701684564352">
        <ele>81.370000000000005</ele>
        <time>2026-08-29T08:14:08Z</time>
      </trkpt>
      <trkpt lat="60.252700829878449" lon="30.489876782521605">
        <ele>81.370000000000005</ele>
        <time>2026-08-29T08:14:24Z</time>
      </trkpt>
      <trkpt lat="60.252813985571265" lon="30.490117259323597">
        <ele>79.930000000000007</ele>
        <time>2026-08-29T08:14:47Z</time>
      </trkpt>
      <trkpt lat="60.252805938944221" lon="30.49029185436666">
        <ele>79.930000000000007</ele>
        <time>2026-08-29T08:15:07Z</time>
      </trkpt>
      <trkpt lat="60.252789091318846" lon="30.490468880161643">
        <ele>79.930000000000007</ele>
        <time>2026-08-29T08:15:28Z</time>
      </trkpt>
      <trkpt lat="60.252730417996645" lon="30.490861237049103">
        <ele>79.930000000000007</ele>
        <time>2026-08-29T08:15:50Z</time>
      </trkpt>
      <trkpt lat="60.252731340005994" lon="30.491023762151599">
        <ele>79.930000000000007</ele>
        <time>2026-08-29T08:16:07Z</time>
      </trkpt>
      <trkpt lat="60.252760760486126" lon="30.491071958094835">
        <ele>79.930000000000007</ele>
        <time>2026-08-29T08:16:38Z</time>
      </trkpt>
      <trkpt lat="60.252755647525191" lon="30.491127027198672">
        <ele>80.409999999999997</ele>
        <time>2026-08-29T08:17:25Z</time>
      </trkpt>
      <trkpt lat="60.252703428268433" lon="30.491279829293489">
        <ele>80.409999999999997</ele>
        <time>2026-08-29T08:17:45Z</time>
      </trkpt>
      <trkpt lat="60.252593457698822" lon="30.491528268903494">
        <ele>80.409999999999997</ele>
        <time>2026-08-29T08:18:03Z</time>
      </trkpt>
      <trkpt lat="60.252589182928205" lon="30.49178265966475">
        <ele>80.409999999999997</ele>
        <time>2026-08-29T08:18:18Z</time>
      </trkpt>
      <trkpt lat="60.252621872350574" lon="30.492049790918827">
        <ele>80.409999999999997</ele>
        <time>2026-08-29T08:18:37Z</time>
      </trkpt>
      <trkpt lat="60.25259337387979" lon="30.492321364581585">
        <ele>80.409999999999997</ele>
        <time>2026-08-29T08:18:56Z</time>
      </trkpt>
      <trkpt lat="60.252700494602323" lon="30.492554130032659">
        <ele>80.409999999999997</ele>
        <time>2026-08-29T08:19:14Z</time>
      </trkpt>
      <trkpt lat="60.252783307805657" lon="30.493078418076038">
        <ele>80.409999999999997</ele>
        <time>2026-08-29T08:19:46Z</time>
      </trkpt>
      <trkpt lat="60.252827061340213" lon="30.493293413892388">
        <ele>79.930000000000007</ele>
        <time>2026-08-29T08:20:02Z</time>
      </trkpt>
      <trkpt lat="60.25275656953454" lon="30.493533471599221">
        <ele>79.930000000000007</ele>
        <time>2026-08-29T08:20:21Z</time>
      </trkpt>
      <trkpt lat="60.252652550116181" lon="30.493868580088019">
        <ele>79.450000000000003</ele>
        <time>2026-08-29T08:20:48Z</time>
      </trkpt>
      <trkpt lat="60.252639474347234" lon="30.493917698040605">
        <ele>78.969999999999999</ele>
        <time>2026-08-29T08:21:46Z</time>
      </trkpt>
      <trkpt lat="60.252526234835386" lon="30.494020460173488">
        <ele>79.450000000000003</ele>
        <time>2026-08-29T08:22:05Z</time>
      </trkpt>
      <trkpt lat="60.252424143254757" lon="30.493993973359466">
        <ele>78.969999999999999</ele>
        <time>2026-08-29T08:22:20Z</time>
      </trkpt>
      <trkpt lat="60.252267988398671" lon="30.494092544540763">
        <ele>78.969999999999999</ele>
        <time>2026-08-29T08:22:40Z</time>
      </trkpt>
      <trkpt lat="60.252178972586989" lon="30.494093550369143">
        <ele>78.969999999999999</ele>
        <time>2026-08-29T08:23:01Z</time>
      </trkpt>
      <trkpt lat="60.252141840755939" lon="30.494181895628572">
        <ele>78.480000000000004</ele>
        <time>2026-08-29T08:23:30Z</time>
      </trkpt>
      <trkpt lat="60.252146786078811" lon="30.494154570624232">
        <ele>78.969999999999999</ele>
        <time>2026-08-29T08:24:08Z</time>
      </trkpt>
      <trkpt lat="60.252142176032066" lon="30.494080474600196">
        <ele>78.969999999999999</ele>
        <time>2026-08-29T08:25:05Z</time>
      </trkpt>
      <trkpt lat="60.252140834927559" lon="30.49390772357583">
        <ele>78.969999999999999</ele>
        <time>2026-08-29T08:25:44Z</time>
      </trkpt>
      <trkpt lat="60.25211401283741" lon="30.493509834632277">
        <ele>78.969999999999999</ele>
        <time>2026-08-29T08:26:03Z</time>
      </trkpt>
      <trkpt lat="60.252040168270469" lon="30.493268352001905">
        <ele>79.930000000000007</ele>
        <time>2026-08-29T08:26:20Z</time>
      </trkpt>
      <trkpt lat="60.252025751397014" lon="30.493047991767526">
        <ele>80.409999999999997</ele>
        <time>2026-08-29T08:26:38Z</time>
      </trkpt>
      <trkpt lat="60.252004209905863" lon="30.492774238809943">
        <ele>80.409999999999997</ele>
        <time>2026-08-29T08:26:57Z</time>
      </trkpt>
      <trkpt lat="60.252051819115877" lon="30.49253418110311">
        <ele>80.890000000000001</ele>
        <time>2026-08-29T08:27:12Z</time>
      </trkpt>
      <trkpt lat="60.25210814550519" lon="30.492266211658716">
        <ele>81.370000000000005</ele>
        <time>2026-08-29T08:27:29Z</time>
      </trkpt>
      <trkpt lat="60.252098506316543" lon="30.491925235837698">
        <ele>81.370000000000005</ele>
        <time>2026-08-29T08:28:01Z</time>
      </trkpt>
      <trkpt lat="60.252110743895173" lon="30.491839237511158">
        <ele>81.849999999999994</ele>
        <time>2026-08-29T08:28:40Z</time>
      </trkpt>
      <trkpt lat="60.252165645360947" lon="30.491850720718503">
        <ele>82.329999999999998</ele>
        <time>2026-08-29T08:29:02Z</time>
      </trkpt>
      <trkpt lat="60.252134380862117" lon="30.491859437897801">
        <ele>82.810000000000002</ele>
        <time>2026-08-29T08:29:26Z</time>
      </trkpt>
      <trkpt lat="60.252100098878145" lon="30.49193412065506">
        <ele>82.810000000000002</ele>
        <time>2026-08-29T08:29:48Z</time>
      </trkpt>
      <trkpt lat="60.252083083614707" lon="30.492101926356554">
        <ele>82.810000000000002</ele>
        <time>2026-08-29T08:30:09Z</time>
      </trkpt>
      <trkpt lat="60.252161035314202" lon="30.49169909209013">
        <ele>82.810000000000002</ele>
        <time>2026-08-29T08:30:30Z</time>
      </trkpt>
      <trkpt lat="60.25225767865777" lon="30.491417795419693">
        <ele>82.810000000000002</ele>
        <time>2026-08-29T08:30:49Z</time>
      </trkpt>
      <trkpt lat="60.252205291762948" lon="30.491156950592995">
        <ele>83.290000000000006</ele>
        <time>2026-08-29T08:31:07Z</time>
      </trkpt>
      <trkpt lat="60.252106050029397" lon="30.490864925086498">
        <ele>83.290000000000006</ele>
        <time>2026-08-29T08:31:28Z</time>
      </trkpt>
      <trkpt lat="60.252062128856778" lon="30.490353545174003">
        <ele>83.769999999999996</ele>
        <time>2026-08-29T08:31:57Z</time>
      </trkpt>
      <trkpt lat="60.252101188525558" lon="30.490077612921596">
        <ele>83.769999999999996</ele>
        <time>2026-08-29T08:32:16Z</time>
      </trkpt>
      <trkpt lat="60.252033798024058" lon="30.489796819165349">
        <ele>83.769999999999996</ele>
        <time>2026-08-29T08:32:40Z</time>
      </trkpt>
      <trkpt lat="60.252043772488832" lon="30.48940597102046">
        <ele>84.25</ele>
        <time>2026-08-29T08:33:14Z</time>
      </trkpt>
      <trkpt lat="60.252123568207026" lon="30.489180162549019">
        <ele>84.730000000000004</ele>
        <time>2026-08-29T08:33:31Z</time>
      </trkpt>
      <trkpt lat="60.252213841304183" lon="30.489012021571398">
        <ele>84.730000000000004</ele>
        <time>2026-08-29T08:34:15Z</time>
      </trkpt>
      <trkpt lat="60.252186935395002" lon="30.488817226141691">
        <ele>84.730000000000004</ele>
        <time>2026-08-29T08:34:37Z</time>
      </trkpt>
      <trkpt lat="60.252179140225053" lon="30.488720750436187">
        <ele>84.730000000000004</ele>
        <time>2026-08-29T08:35:10Z</time>
      </trkpt>
      <trkpt lat="60.252164974808693" lon="30.488567110151052">
        <ele>84.730000000000004</ele>
        <time>2026-08-29T08:35:39Z</time>
      </trkpt>
      <trkpt lat="60.252193054184318" lon="30.488208113238215">
        <ele>84.730000000000004</ele>
        <time>2026-08-29T08:36:07Z</time>
      </trkpt>
      <trkpt lat="60.252206884324551" lon="30.487822126597166">
        <ele>84.730000000000004</ele>
        <time>2026-08-29T08:36:30Z</time>
      </trkpt>
      <trkpt lat="60.252226917073131" lon="30.487414179369807">
        <ele>84.730000000000004</ele>
        <time>2026-08-29T08:36:56Z</time>
      </trkpt>
      <trkpt lat="60.252201519906521" lon="30.48705124296248">
        <ele>84.730000000000004</ele>
        <time>2026-08-29T08:37:17Z</time>
      </trkpt>
      <trkpt lat="60.252192215994" lon="30.486749159172177">
        <ele>83.290000000000006</ele>
        <time>2026-08-29T08:37:37Z</time>
      </trkpt>
      <trkpt lat="60.252219205722213" lon="30.486294776201248">
        <ele>82.329999999999998</ele>
        <time>2026-08-29T08:37:57Z</time>
      </trkpt>
      <trkpt lat="60.252407630905509" lon="30.48615949228406">
        <ele>81.370000000000005</ele>
        <time>2026-08-29T08:38:19Z</time>
      </trkpt>
      <trkpt lat="60.252459347248077" lon="30.485945334658027">
        <ele>80.890000000000001</ele>
        <time>2026-08-29T08:38:43Z</time>
      </trkpt>
      <trkpt lat="60.252439565956593" lon="30.485934773460031">
        <ele>80.890000000000001</ele>
        <time>2026-08-29T08:39:20Z</time>
      </trkpt>
      <trkpt lat="60.252413833513856" lon="30.48599193803966">
        <ele>80.890000000000001</ele>
        <time>2026-08-29T08:39:55Z</time>
      </trkpt>
      <trkpt lat="60.252457335591316" lon="30.48589076846838">
        <ele>80.890000000000001</ele>
        <time>2026-08-29T08:40:20Z</time>
      </trkpt>
      <trkpt lat="60.252508465200663" lon="30.485670659691095">
        <ele>80.890000000000001</ele>
        <time>2026-08-29T08:40:39Z</time>
      </trkpt>
      <trkpt lat="60.252570239827037" lon="30.485264975577593">
        <ele>80.409999999999997</ele>
        <time>2026-08-29T08:41:00Z</time>
      </trkpt>
      <trkpt lat="60.252582477405667" lon="30.485207140445709">
        <ele>80.890000000000001</ele>
        <time>2026-08-29T08:41:20Z</time>
      </trkpt>
      <trkpt lat="60.252435291185975" lon="30.485339909791946">
        <ele>80.890000000000001</ele>
        <time>2026-08-29T08:41:57Z</time>
      </trkpt>
      <trkpt lat="60.252321716398001" lon="30.485041011124849">
        <ele>80.890000000000001</ele>
        <time>2026-08-29T08:42:21Z</time>
      </trkpt>
      <trkpt lat="60.252247201278806" lon="30.485101779922843">
        <ele>80.890000000000001</ele>
        <time>2026-08-29T08:42:39Z</time>
      </trkpt>
      <trkpt lat="60.252115437760949" lon="30.485253911465406">
        <ele>80.890000000000001</ele>
        <time>2026-08-29T08:43:09Z</time>
      </trkpt>
      <trkpt lat="60.252100853249431" lon="30.485035814344883">
        <ele>80.890000000000001</ele>
        <time>2026-08-29T08:43:27Z</time>
      </trkpt>
      <trkpt lat="60.252074953168631" lon="30.484899189323187">
        <ele>80.890000000000001</ele>
        <time>2026-08-29T08:43:45Z</time>
      </trkpt>
      <trkpt lat="60.252054333686829" lon="30.485021816566586">
        <ele>80.890000000000001</ele>
        <time>2026-08-29T08:44:30Z</time>
      </trkpt>
      <trkpt lat="60.25202214717865" lon="30.485181575641036">
        <ele>80.890000000000001</ele>
        <time>2026-08-29T08:45:02Z</time>
      </trkpt>
      <trkpt lat="60.251949559897184" lon="30.485429344698787">
        <ele>80.890000000000001</ele>
        <time>2026-08-29T08:45:20Z</time>
      </trkpt>
      <trkpt lat="60.251943273469806" lon="30.48565917648375">
        <ele>80.890000000000001</ele>
        <time>2026-08-29T08:45:42Z</time>
      </trkpt>
      <trkpt lat="60.251845540478826" lon="30.485898396000266">
        <ele>80.890000000000001</ele>
        <time>2026-08-29T08:46:03Z</time>
      </trkpt>
      <trkpt lat="60.251773120835423" lon="30.486250268295407">
        <ele>80.890000000000001</ele>
        <time>2026-08-29T08:46:23Z</time>
      </trkpt>
      <trkpt lat="60.251839002594352" lon="30.486648576334119">
        <ele>80.890000000000001</ele>
        <time>2026-08-29T08:46:46Z</time>
      </trkpt>
      <trkpt lat="60.25176364928484" lon="30.487002125009894">
        <ele>81.849999999999994</ele>
        <time>2026-08-29T08:47:04Z</time>
      </trkpt>
      <trkpt lat="60.251684188842773" lon="30.48738501034677">
        <ele>82.329999999999998</ele>
        <time>2026-08-29T08:47:41Z</time>
      </trkpt>
      <trkpt lat="60.251625096425414" lon="30.487573016434908">
        <ele>83.290000000000006</ele>
        <time>2026-08-29T08:48:01Z</time>
      </trkpt>
      <trkpt lat="60.251595759764314" lon="30.487568071112037">
        <ele>84.25</ele>
        <time>2026-08-29T08:48:37Z</time>
      </trkpt>
      <trkpt lat="60.251518059521914" lon="30.487442845478654">
        <ele>84.25</ele>
        <time>2026-08-29T08:49:26Z</time>
      </trkpt>
      <trkpt lat="60.25145779363811" lon="30.487466398626566">
        <ele>84.25</ele>
        <time>2026-08-29T08:49:35Z</time>
      </trkpt>
      <trkpt lat="60.251423763111234" lon="30.487417364493012">
        <ele>84.25</ele>
        <time>2026-08-29T08:49:58Z</time>
      </trkpt>
      <trkpt lat="60.25139668956399" lon="30.4877392295748">
        <ele>84.25</ele>
        <time>2026-08-29T08:50:14Z</time>
      </trkpt>
      <trkpt lat="60.251375986263156" lon="30.487908292561769">
        <ele>84.25</ele>
        <time>2026-08-29T08:50:30Z</time>
      </trkpt>
      <trkpt lat="60.251522250473499" lon="30.488139381632209">
        <ele>84.730000000000004</ele>
        <time>2026-08-29T08:50:53Z</time>
      </trkpt>
      <trkpt lat="60.251657702028751" lon="30.488369800150394">
        <ele>84.730000000000004</ele>
        <time>2026-08-29T08:51:21Z</time>
      </trkpt>
      <trkpt lat="60.251782340928912" lon="30.488834576681256">
        <ele>84.730000000000004</ele>
        <time>2026-08-29T08:51:51Z</time>
      </trkpt>
      <trkpt lat="60.251822657883167" lon="30.488972375169396">
        <ele>85.209999999999994</ele>
        <time>2026-08-29T08:52:11Z</time>
      </trkpt>
      <trkpt lat="60.251817377284169" lon="30.489062229171395">
        <ele>85.209999999999994</ele>
        <time>2026-08-29T08:52:43Z</time>
      </trkpt>
      <trkpt lat="60.251788124442101" lon="30.489233555272222">
        <ele>85.209999999999994</ele>
        <time>2026-08-29T08:53:17Z</time>
      </trkpt>
      <trkpt lat="60.251738671213388" lon="30.489063486456871">
        <ele>85.209999999999994</ele>
        <time>2026-08-29T08:53:42Z</time>
      </trkpt>
      <trkpt lat="60.2517363242805" lon="30.489195082336664">
        <ele>85.209999999999994</ele>
        <time>2026-08-29T08:54:01Z</time>
      </trkpt>
      <trkpt lat="60.251708412542939" lon="30.489388033747673">
        <ele>85.209999999999994</ele>
        <time>2026-08-29T08:54:17Z</time>
      </trkpt>
      <trkpt lat="60.251623503863811" lon="30.489596324041486">
        <ele>85.209999999999994</ele>
        <time>2026-08-29T08:54:40Z</time>
      </trkpt>
      <trkpt lat="60.251559047028422" lon="30.489777540788054">
        <ele>85.209999999999994</ele>
        <time>2026-08-29T08:54:56Z</time>
      </trkpt>
      <trkpt lat="60.251495512202382" lon="30.489894216880202">
        <ele>85.209999999999994</ele>
        <time>2026-08-29T08:55:13Z</time>
      </trkpt>
      <trkpt lat="60.251404652372003" lon="30.490098902955651">
        <ele>85.209999999999994</ele>
        <time>2026-08-29T08:55:35Z</time>
      </trkpt>
      <trkpt lat="60.251372465863824" lon="30.490334769710898">
        <ele>85.209999999999994</ele>
        <time>2026-08-29T08:55:56Z</time>
      </trkpt>
      <trkpt lat="60.251298286020756" lon="30.490518668666482">
        <ele>85.209999999999994</ele>
        <time>2026-08-29T08:56:13Z</time>
      </trkpt>
      <trkpt lat="60.251207342371345" lon="30.490644397214055">
        <ele>85.209999999999994</ele>
        <time>2026-08-29T08:56:31Z</time>
      </trkpt>
      <trkpt lat="60.25123156607151" lon="30.490799127146602">
        <ele>85.209999999999994</ele>
        <time>2026-08-29T08:56:54Z</time>
      </trkpt>
      <trkpt lat="60.251212706789374" lon="30.49109953455627">
        <ele>84.25</ele>
        <time>2026-08-29T08:57:12Z</time>
      </trkpt>
      <trkpt lat="60.251302560791373" lon="30.491276895627379">
        <ele>84.25</ele>
        <time>2026-08-29T08:57:28Z</time>
      </trkpt>
      <trkpt lat="60.251330221071839" lon="30.491533214226365">
        <ele>83.290000000000006</ele>
        <time>2026-08-29T08:58:23Z</time>
      </trkpt>
      <trkpt lat="60.251338267698884" lon="30.491572441533208">
        <ele>83.290000000000006</ele>
        <time>2026-08-29T08:58:51Z</time>
      </trkpt>
      <trkpt lat="60.251370621845126" lon="30.491896318271756">
        <ele>83.290000000000006</ele>
        <time>2026-08-29T08:59:11Z</time>
      </trkpt>
      <trkpt lat="60.251365173608065" lon="30.492218853905797">
        <ele>83.290000000000006</ele>
        <time>2026-08-29T08:59:35Z</time>
      </trkpt>
      <trkpt lat="60.251413704827428" lon="30.49253904260695">
        <ele>83.290000000000006</ele>
        <time>2026-08-29T08:59:58Z</time>
      </trkpt>
      <trkpt lat="60.251485118642449" lon="30.492690922692418">
        <ele>83.290000000000006</ele>
        <time>2026-08-29T09:00:17Z</time>
      </trkpt>
      <trkpt lat="60.251532727852464" lon="30.492891920730472">
        <ele>83.290000000000006</ele>
        <time>2026-08-29T09:00:32Z</time>
      </trkpt>
      <trkpt lat="60.251455530524254" lon="30.493129966780543">
        <ele>83.290000000000006</ele>
        <time>2026-08-29T09:00:48Z</time>
      </trkpt>
      <trkpt lat="60.251352852210402" lon="30.493382010608912">
        <ele>83.290000000000006</ele>
        <time>2026-08-29T09:01:07Z</time>
      </trkpt>
      <trkpt lat="60.251326197758317" lon="30.49340832978487">
        <ele>83.290000000000006</ele>
        <time>2026-08-29T09:01:49Z</time>
      </trkpt>
      <trkpt lat="60.251267608255148" lon="30.493385111913085">
        <ele>83.290000000000006</ele>
        <time>2026-08-29T09:02:15Z</time>
      </trkpt>
      <trkpt lat="60.251153949648142" lon="30.493620224297047">
        <ele>83.290000000000006</ele>
        <time>2026-08-29T09:02:36Z</time>
      </trkpt>
      <trkpt lat="60.25097549892962" lon="30.493463398888707">
        <ele>83.290000000000006</ele>
        <time>2026-08-29T09:03:26Z</time>
      </trkpt>
      <trkpt lat="60.250957477837801" lon="30.493189226835966">
        <ele>83.290000000000006</ele>
        <time>2026-08-29T09:03:43Z</time>
      </trkpt>
      <trkpt lat="60.250947251915932" lon="30.492677008733153">
        <ele>84.730000000000004</ele>
        <time>2026-08-29T09:04:08Z</time>
      </trkpt>
      <trkpt lat="60.25084457360208" lon="30.492612468078732">
        <ele>84.730000000000004</ele>
        <time>2026-08-29T09:04:26Z</time>
      </trkpt>
      <trkpt lat="60.250819930806756" lon="30.492276689037681">
        <ele>84.730000000000004</ele>
        <time>2026-08-29T09:04:46Z</time>
      </trkpt>
      <trkpt lat="60.250774584710598" lon="30.492050377652049">
        <ele>84.730000000000004</ele>
        <time>2026-08-29T09:05:06Z</time>
      </trkpt>
      <trkpt lat="60.250933589413762" lon="30.491766231134534">
        <ele>84.730000000000004</ele>
        <time>2026-08-29T09:05:31Z</time>
      </trkpt>
      <trkpt lat="60.250905258581042" lon="30.491542853415012">
        <ele>84.730000000000004</ele>
        <time>2026-08-29T09:05:46Z</time>
      </trkpt>
      <trkpt lat="60.250877682119608" lon="30.491198860108852">
        <ele>84.730000000000004</ele>
        <time>2026-08-29T09:06:03Z</time>
      </trkpt>
      <trkpt lat="60.250845914706588" lon="30.490989312529564">
        <ele>85.209999999999994</ele>
        <time>2026-08-29T09:07:01Z</time>
      </trkpt>
      <trkpt lat="60.250871730968356" lon="30.490870038047433">
        <ele>85.209999999999994</ele>
        <time>2026-08-29T09:07:31Z</time>
      </trkpt>
      <trkpt lat="60.25094130076468" lon="30.490603661164641">
        <ele>85.209999999999994</ele>
        <time>2026-08-29T09:07:49Z</time>
      </trkpt>
      <trkpt lat="60.250944904983044" lon="30.490339463576674">
        <ele>85.209999999999994</ele>
        <time>2026-08-29T09:08:08Z</time>
      </trkpt>
      <trkpt lat="60.250998716801405" lon="30.49011742696166">
        <ele>85.209999999999994</ele>
        <time>2026-08-29T09:08:23Z</time>
      </trkpt>
      <trkpt lat="60.251012714579701" lon="30.490082055330276">
        <ele>85.209999999999994</ele>
        <time>2026-08-29T09:08:26Z</time>
      </trkpt>
      <trkpt lat="60.251015899702907" lon="30.489844679832458">
        <ele>85.689999999999998</ele>
        <time>2026-08-29T09:08:41Z</time>
      </trkpt>
      <trkpt lat="60.251042889431119" lon="30.489637311547995">
        <ele>85.689999999999998</ele>
        <time>2026-08-29T09:08:52Z</time>
      </trkpt>
      <trkpt lat="60.251130312681198" lon="30.489504793658853">
        <ele>85.689999999999998</ele>
        <time>2026-08-29T09:09:04Z</time>
      </trkpt>
      <trkpt lat="60.251206252723932" lon="30.489382753148675">
        <ele>85.689999999999998</ele>
        <time>2026-08-29T09:09:16Z</time>
      </trkpt>
      <trkpt lat="60.25123056024313" lon="30.489222072064877">
        <ele>85.689999999999998</ele>
        <time>2026-08-29T09:09:27Z</time>
      </trkpt>
      <trkpt lat="60.251234332099557" lon="30.488969022408128">
        <ele>85.689999999999998</ele>
        <time>2026-08-29T09:09:45Z</time>
      </trkpt>
      <trkpt lat="60.2512217592448" lon="30.488826362416148">
        <ele>85.689999999999998</ele>
        <time>2026-08-29T09:09:57Z</time>
      </trkpt>
      <trkpt lat="60.251210946589708" lon="30.488789146766067">
        <ele>85.689999999999998</ele>
        <time>2026-08-29T09:10:01Z</time>
      </trkpt>
      <trkpt lat="60.25120759382844" lon="30.488656461238861">
        <ele>85.689999999999998</ele>
        <time>2026-08-29T09:10:11Z</time>
      </trkpt>
      <trkpt lat="60.251206420361996" lon="30.488643301650882">
        <ele>85.689999999999998</ele>
        <time>2026-08-29T09:10:27Z</time>
      </trkpt>
      <trkpt lat="60.251202397048473" lon="30.488688396289945">
        <ele>85.689999999999998</ele>
        <time>2026-08-29T09:10:52Z</time>
      </trkpt>
      <trkpt lat="60.251151183620095" lon="30.488538695499301">
        <ele>85.689999999999998</ele>
        <time>2026-08-29T09:11:13Z</time>
      </trkpt>
      <trkpt lat="60.251095611602068" lon="30.488467114046216">
        <ele>85.689999999999998</ele>
        <time>2026-08-29T09:11:24Z</time>
      </trkpt>
      <trkpt lat="60.250989748165011" lon="30.488482620567083">
        <ele>83.769999999999996</ele>
        <time>2026-08-29T09:11:36Z</time>
      </trkpt>
      <trkpt lat="60.250955382362008" lon="30.48837935552001">
        <ele>83.769999999999996</ele>
        <time>2026-08-29T09:11:49Z</time>
      </trkpt>
      <trkpt lat="60.251020090654492" lon="30.488297464326024">
        <ele>83.769999999999996</ele>
        <time>2026-08-29T09:12:10Z</time>
      </trkpt>
      <trkpt lat="60.251074237748981" lon="30.488127479329705">
        <ele>83.290000000000006</ele>
        <time>2026-08-29T09:12:23Z</time>
      </trkpt>
      <trkpt lat="60.250984551385045" lon="30.487890187650919">
        <ele>83.290000000000006</ele>
        <time>2026-08-29T09:12:39Z</time>
      </trkpt>
      <trkpt lat="60.251016821712255" lon="30.487680891528726">
        <ele>83.290000000000006</ele>
        <time>2026-08-29T09:12:55Z</time>
      </trkpt>
      <trkpt lat="60.251074824482203" lon="30.487569579854608">
        <ele>83.290000000000006</ele>
        <time>2026-08-29T09:13:08Z</time>
      </trkpt>
      <trkpt lat="60.251079350709915" lon="30.487375035881996">
        <ele>83.290000000000006</ele>
        <time>2026-08-29T09:13:18Z</time>
      </trkpt>
      <trkpt lat="60.25110793299973" lon="30.487138582393527">
        <ele>84.730000000000004</ele>
        <time>2026-08-29T09:13:30Z</time>
      </trkpt>
      <trkpt lat="60.251097539439797" lon="30.486943367868662">
        <ele>84.730000000000004</ele>
        <time>2026-08-29T09:13:43Z</time>
      </trkpt>
      <trkpt lat="60.251120338216424" lon="30.486789308488369">
        <ele>84.730000000000004</ele>
        <time>2026-08-29T09:13:52Z</time>
      </trkpt>
      <trkpt lat="60.251211365684867" lon="30.486660394817591">
        <ele>84.25</ele>
        <time>2026-08-29T09:14:13Z</time>
      </trkpt>
      <trkpt lat="60.251237349584699" lon="30.486653940752149">
        <ele>84.25</ele>
        <time>2026-08-29T09:14:34Z</time>
      </trkpt>
      <trkpt lat="60.251233577728271" lon="30.486624436452985">
        <ele>84.730000000000004</ele>
        <time>2026-08-29T09:15:06Z</time>
      </trkpt>
      <trkpt lat="60.251238606870174" lon="30.486602811142802">
        <ele>84.730000000000004</ele>
        <time>2026-08-29T09:15:34Z</time>
      </trkpt>
      <trkpt lat="60.251290909945965" lon="30.48637306317687">
        <ele>84.730000000000004</ele>
        <time>2026-08-29T09:15:52Z</time>
      </trkpt>
      <trkpt lat="60.251328377053142" lon="30.48603393137455">
        <ele>84.730000000000004</ele>
        <time>2026-08-29T09:16:18Z</time>
      </trkpt>
      <trkpt lat="60.251328712329268" lon="30.485795550048351">
        <ele>84.730000000000004</ele>
        <time>2026-08-29T09:16:36Z</time>
      </trkpt>
      <trkpt lat="60.251310607418418" lon="30.485588433220983">
        <ele>83.769999999999996</ele>
        <time>2026-08-29T09:16:53Z</time>
      </trkpt>
      <trkpt lat="60.251295603811741" lon="30.485404534265399">
        <ele>83.769999999999996</ele>
        <time>2026-08-29T09:17:15Z</time>
      </trkpt>
      <trkpt lat="60.251395097002387" lon="30.485336724668741">
        <ele>83.769999999999996</ele>
        <time>2026-08-29T09:17:31Z</time>
      </trkpt>
      <trkpt lat="60.251367101445794" lon="30.485121728852391">
        <ele>83.290000000000006</ele>
        <time>2026-08-29T09:17:48Z</time>
      </trkpt>
      <trkpt lat="60.251427702605724" lon="30.485069006681442">
        <ele>83.290000000000006</ele>
        <time>2026-08-29T09:18:05Z</time>
      </trkpt>
      <trkpt lat="60.251459134742618" lon="30.484854681417346">
        <ele>83.290000000000006</ele>
        <time>2026-08-29T09:18:30Z</time>
      </trkpt>
      <trkpt lat="60.25133365765214" lon="30.484838504344225">
        <ele>83.290000000000006</ele>
        <time>2026-08-29T09:18:56Z</time>
      </trkpt>
      <trkpt lat="60.251356707885861" lon="30.484850071370602">
        <ele>83.290000000000006</ele>
        <time>2026-08-29T09:19:43Z</time>
      </trkpt>
      <trkpt lat="60.251347320154309" lon="30.484872870147228">
        <ele>82.810000000000002</ele>
        <time>2026-08-29T09:20:24Z</time>
      </trkpt>
      <trkpt lat="60.251355953514576" lon="30.48487538471818">
        <ele>82.810000000000002</ele>
        <time>2026-08-29T09:20:54Z</time>
      </trkpt>
      <trkpt lat="60.251356121152639" lon="30.484906146302819">
        <ele>79.930000000000007</ele>
        <time>2026-08-29T09:22:45Z</time>
      </trkpt>
      <trkpt lat="60.251361150294542" lon="30.484901955351233">
        <ele>79.930000000000007</ele>
        <time>2026-08-29T09:22:46Z</time>
      </trkpt>
      <trkpt lat="60.251385876908898" lon="30.484899524599314">
        <ele>79.930000000000007</ele>
        <time>2026-08-29T09:23:09Z</time>
      </trkpt>
      <trkpt lat="60.251348912715912" lon="30.484953168779612">
        <ele>79.930000000000007</ele>
        <time>2026-08-29T09:23:31Z</time>
      </trkpt>
      <trkpt lat="60.251270039007068" lon="30.484940009191632">
        <ele>79.930000000000007</ele>
        <time>2026-08-29T09:23:43Z</time>
      </trkpt>
      <trkpt lat="60.251219496130943" lon="30.485031539574265">
        <ele>79.930000000000007</ele>
        <time>2026-08-29T09:23:55Z</time>
      </trkpt>
      <trkpt lat="60.251213712617755" lon="30.485027097165585">
        <ele>79.930000000000007</ele>
        <time>2026-08-29T09:23:56Z</time>
      </trkpt>
      <trkpt lat="60.251130145043135" lon="30.484843114390969">
        <ele>79.930000000000007</ele>
        <time>2026-08-29T09:24:11Z</time>
      </trkpt>
      <trkpt lat="60.251053031533957" lon="30.484908996149898">
        <ele>79.930000000000007</ele>
        <time>2026-08-29T09:24:26Z</time>
      </trkpt>
      <trkpt lat="60.250974157825112" lon="30.484957946464419">
        <ele>79.930000000000007</ele>
        <time>2026-08-29T09:24:38Z</time>
      </trkpt>
      <trkpt lat="60.250887321308255" lon="30.484943948686123">
        <ele>79.930000000000007</ele>
        <time>2026-08-29T09:24:52Z</time>
      </trkpt>
      <trkpt lat="60.250875419005752" lon="30.484988791868091">
        <ele>79.930000000000007</ele>
        <time>2026-08-29T09:25:22Z</time>
      </trkpt>
      <trkpt lat="60.250845830887556" lon="30.484966998919845">
        <ele>79.930000000000007</ele>
        <time>2026-08-29T09:25:47Z</time>
      </trkpt>
      <trkpt lat="60.25085580535233" lon="30.484934309497476">
        <ele>79.930000000000007</ele>
        <time>2026-08-29T09:26:56Z</time>
      </trkpt>
      <trkpt lat="60.250859241932631" lon="30.484967920929193">
        <ele>79.930000000000007</ele>
        <time>2026-08-29T09:27:24Z</time>
      </trkpt>
      <trkpt lat="60.250908695161343" lon="30.485139163210988">
        <ele>79.930000000000007</ele>
        <time>2026-08-29T09:27:37Z</time>
      </trkpt>
      <trkpt lat="60.250913389027119" lon="30.485251229256392">
        <ele>79.930000000000007</ele>
        <time>2026-08-29T09:27:45Z</time>
      </trkpt>
      <trkpt lat="60.250916238874197" lon="30.485425991937518">
        <ele>79.930000000000007</ele>
        <time>2026-08-29T09:27:58Z</time>
      </trkpt>
      <trkpt lat="60.250912047922611" lon="30.485491035506129">
        <ele>79.930000000000007</ele>
        <time>2026-08-29T09:28:05Z</time>
      </trkpt>
      <trkpt lat="60.250836862251163" lon="30.485616764053702">
        <ele>79.930000000000007</ele>
        <time>2026-08-29T09:28:17Z</time>
      </trkpt>
      <trkpt lat="60.250791097059846" lon="30.485683316364884">
        <ele>79.930000000000007</ele>
        <time>2026-08-29T09:28:28Z</time>
      </trkpt>
      <trkpt lat="60.250794198364019" lon="30.485848439857364">
        <ele>79.930000000000007</ele>
        <time>2026-08-29T09:28:41Z</time>
      </trkpt>
      <trkpt lat="60.250774752348661" lon="30.485913818702102">
        <ele>79.930000000000007</ele>
        <time>2026-08-29T09:28:56Z</time>
      </trkpt>
      <trkpt lat="60.250777686014771" lon="30.486026220023632">
        <ele>79.930000000000007</ele>
        <time>2026-08-29T09:29:07Z</time>
      </trkpt>
      <trkpt lat="60.250724963843822" lon="30.486065112054348">
        <ele>79.930000000000007</ele>
        <time>2026-08-29T09:29:18Z</time>
      </trkpt>
      <trkpt lat="60.250719431787729" lon="30.48623819835484">
        <ele>79.930000000000007</ele>
        <time>2026-08-29T09:29:30Z</time>
      </trkpt>
      <trkpt lat="60.250679533928633" lon="30.486394939944148">
        <ele>79.930000000000007</ele>
        <time>2026-08-29T09:29:42Z</time>
      </trkpt>
      <trkpt lat="60.250655058771372" lon="30.486485632136464">
        <ele>79.930000000000007</ele>
        <time>2026-08-29T09:29:49Z</time>
      </trkpt>
      <trkpt lat="60.250623291358352" lon="30.486651845276356">
        <ele>79.930000000000007</ele>
        <time>2026-08-29T09:30:00Z</time>
      </trkpt>
      <trkpt lat="60.250555397942662" lon="30.486833229660988">
        <ele>80.409999999999997</ele>
        <time>2026-08-29T09:30:15Z</time>
      </trkpt>
      <trkpt lat="60.250538550317287" lon="30.486952587962151">
        <ele>80.409999999999997</ele>
        <time>2026-08-29T09:30:28Z</time>
      </trkpt>
      <trkpt lat="60.25052648037672" lon="30.487044537439942">
        <ele>80.409999999999997</ele>
        <time>2026-08-29T09:30:41Z</time>
      </trkpt>
      <trkpt lat="60.250570317730308" lon="30.487077813595533">
        <ele>80.409999999999997</ele>
        <time>2026-08-29T09:30:52Z</time>
      </trkpt>
      <trkpt lat="60.250610299408436" lon="30.487216031178832">
        <ele>80.409999999999997</ele>
        <time>2026-08-29T09:31:04Z</time>
      </trkpt>
      <trkpt lat="60.250634187832475" lon="30.48729607835412">
        <ele>80.409999999999997</ele>
        <time>2026-08-29T09:31:15Z</time>
      </trkpt>
      <trkpt lat="60.250667547807097" lon="30.487415185198188">
        <ele>80.409999999999997</ele>
        <time>2026-08-29T09:31:23Z</time>
      </trkpt>
      <trkpt lat="60.250608790665865" lon="30.487604364752769">
        <ele>81.370000000000005</ele>
        <time>2026-08-29T09:31:37Z</time>
      </trkpt>
      <trkpt lat="60.250577023252845" lon="30.487629259005189">
        <ele>81.370000000000005</ele>
        <time>2026-08-29T09:32:09Z</time>
      </trkpt>
      <trkpt lat="60.250578783452511" lon="30.487675275653601">
        <ele>81.370000000000005</ele>
        <time>2026-08-29T09:32:35Z</time>
      </trkpt>
      <trkpt lat="60.250553386285901" lon="30.487694218754768">
        <ele>81.849999999999994</ele>
        <time>2026-08-29T09:33:09Z</time>
      </trkpt>
      <trkpt lat="60.250497059896588" lon="30.487688519060612">
        <ele>81.849999999999994</ele>
        <time>2026-08-29T09:33:52Z</time>
      </trkpt>
      <trkpt lat="60.250538131222129" lon="30.487694637849927">
        <ele>81.849999999999994</ele>
        <time>2026-08-29T09:34:05Z</time>
      </trkpt>
      <trkpt lat="60.250564953312278" lon="30.487681394442916">
        <ele>81.849999999999994</ele>
        <time>2026-08-29T09:34:12Z</time>
      </trkpt>
      <trkpt lat="60.250577190890908" lon="30.487766303122044">
        <ele>81.849999999999994</ele>
        <time>2026-08-29T09:34:24Z</time>
      </trkpt>
      <trkpt lat="60.250548189505935" lon="30.487963361665606">
        <ele>82.329999999999998</ele>
        <time>2026-08-29T09:34:38Z</time>
      </trkpt>
      <trkpt lat="60.250620692968369" lon="30.488106608390808">
        <ele>82.329999999999998</ele>
        <time>2026-08-29T09:34:52Z</time>
      </trkpt>
      <trkpt lat="60.250619854778051" lon="30.488213896751404">
        <ele>82.329999999999998</ele>
        <time>2026-08-29T09:34:59Z</time>
      </trkpt>
      <trkpt lat="60.250621698796749" lon="30.488261925056577">
        <ele>82.329999999999998</ele>
        <time>2026-08-29T09:35:01Z</time>
      </trkpt>
      <trkpt lat="60.250622453168035" lon="30.488308276981115">
        <ele>82.329999999999998</ele>
        <time>2026-08-29T09:35:03Z</time>
      </trkpt>
      <trkpt lat="60.250633517280221" lon="30.488635255023837">
        <ele>82.329999999999998</ele>
        <time>2026-08-29T09:35:19Z</time>
      </trkpt>
      <trkpt lat="60.250601749867201" lon="30.488864835351706">
        <ele>82.329999999999998</ele>
        <time>2026-08-29T09:35:34Z</time>
      </trkpt>
      <trkpt lat="60.250572916120291" lon="30.489161135628819">
        <ele>82.810000000000002</ele>
        <time>2026-08-29T09:35:55Z</time>
      </trkpt>
      <trkpt lat="60.250500496476889" lon="30.489509152248502">
        <ele>82.810000000000002</ele>
        <time>2026-08-29T09:36:18Z</time>
      </trkpt>
      <trkpt lat="60.250452719628811" lon="30.48972892574966">
        <ele>82.810000000000002</ele>
        <time>2026-08-29T09:36:35Z</time>
      </trkpt>
      <trkpt lat="60.250494880601764" lon="30.490212477743626">
        <ele>82.810000000000002</ele>
        <time>2026-08-29T09:36:59Z</time>
      </trkpt>
      <trkpt lat="60.250541735440493" lon="30.490477094426751">
        <ele>82.810000000000002</ele>
        <time>2026-08-29T09:37:17Z</time>
      </trkpt>
      <trkpt lat="60.250458670780063" lon="30.490697622299194">
        <ele>82.810000000000002</ele>
        <time>2026-08-29T09:37:41Z</time>
      </trkpt>
      <trkpt lat="60.250423885881901" lon="30.490684127435088">
        <ele>82.810000000000002</ele>
        <time>2026-08-29T09:38:10Z</time>
      </trkpt>
      <trkpt lat="60.25042187422514" lon="30.490655964240432">
        <ele>82.810000000000002</ele>
        <time>2026-08-29T09:38:17Z</time>
      </trkpt>
      <trkpt lat="60.250395387411118" lon="30.490890992805362">
        <ele>82.810000000000002</ele>
        <time>2026-08-29T09:38:37Z</time>
      </trkpt>
      <trkpt lat="60.250391950830817" lon="30.491119818761945">
        <ele>83.769999999999996</ele>
        <time>2026-08-29T09:39:03Z</time>
      </trkpt>
      <trkpt lat="60.250335037708282" lon="30.491275135427713">
        <ele>83.769999999999996</ele>
        <time>2026-08-29T09:39:19Z</time>
      </trkpt>
      <trkpt lat="60.250304862856865" lon="30.491588786244392">
        <ele>84.25</ele>
        <time>2026-08-29T09:39:45Z</time>
      </trkpt>
      <trkpt lat="60.250263791531324" lon="30.491817109286785">
        <ele>85.209999999999994</ele>
        <time>2026-08-29T09:39:59Z</time>
      </trkpt>
      <trkpt lat="60.250356076285243" lon="30.491988938301802">
        <ele>85.689999999999998</ele>
        <time>2026-08-29T09:40:18Z</time>
      </trkpt>
      <trkpt lat="60.25038180872798" lon="30.492291273549199">
        <ele>85.689999999999998</ele>
        <time>2026-08-29T09:40:37Z</time>
      </trkpt>
      <trkpt lat="60.250420616939664" lon="30.492464108392596">
        <ele>85.689999999999998</ele>
        <time>2026-08-29T09:41:00Z</time>
      </trkpt>
      <trkpt lat="60.250426903367043" lon="30.49259134568274">
        <ele>85.689999999999998</ele>
        <time>2026-08-29T09:41:32Z</time>
      </trkpt>
      <trkpt lat="60.250356327742338" lon="30.492867780849338">
        <ele>85.689999999999998</ele>
        <time>2026-08-29T09:41:55Z</time>
      </trkpt>
      <trkpt lat="60.25035448372364" lon="30.493174307048321">
        <ele>85.689999999999998</ele>
        <time>2026-08-29T09:42:11Z</time>
      </trkpt>
      <trkpt lat="60.250366972759366" lon="30.493231806904078">
        <ele>86.180000000000007</ele>
        <time>2026-08-29T09:42:36Z</time>
      </trkpt>
      <trkpt lat="60.250281142070889" lon="30.493295677006245">
        <ele>85.209999999999994</ele>
        <time>2026-08-29T09:43:01Z</time>
      </trkpt>
      <trkpt lat="60.250131860375404" lon="30.493383267894387">
        <ele>85.209999999999994</ele>
        <time>2026-08-29T09:43:19Z</time>
      </trkpt>
      <trkpt lat="60.250187264755368" lon="30.493383686989546">
        <ele>85.209999999999994</ele>
        <time>2026-08-29T09:43:43Z</time>
      </trkpt>
      <trkpt lat="60.250141583383083" lon="30.493382513523102">
        <ele>85.209999999999994</ele>
        <time>2026-08-29T09:44:22Z</time>
      </trkpt>
      <trkpt lat="60.250049969181418" lon="30.493417214602232">
        <ele>83.769999999999996</ele>
        <time>2026-08-29T09:44:36Z</time>
      </trkpt>
      <trkpt lat="60.249981908127666" lon="30.493371365591884">
        <ele>83.290000000000006</ele>
        <time>2026-08-29T09:45:07Z</time>
      </trkpt>
      <trkpt lat="60.249973442405462" lon="30.493102809414268">
        <ele>83.290000000000006</ele>
        <time>2026-08-29T09:45:25Z</time>
      </trkpt>
      <trkpt lat="60.250002862885594" lon="30.492995269596577">
        <ele>83.290000000000006</ele>
        <time>2026-08-29T09:45:44Z</time>
      </trkpt>
      <trkpt lat="60.250028176233172" lon="30.492805419489741">
        <ele>84.730000000000004</ele>
        <time>2026-08-29T09:46:27Z</time>
      </trkpt>
      <trkpt lat="60.249912086874247" lon="30.492834085598588">
        <ele>85.209999999999994</ele>
        <time>2026-08-29T09:46:45Z</time>
      </trkpt>
      <trkpt lat="60.24982969276607" lon="30.492934165522456">
        <ele>85.209999999999994</ele>
        <time>2026-08-29T09:46:58Z</time>
      </trkpt>
      <trkpt lat="60.249833799898624" lon="30.493123680353165">
        <ele>84.25</ele>
        <time>2026-08-29T09:47:13Z</time>
      </trkpt>
      <trkpt lat="60.249837739393115" lon="30.493262149393559">
        <ele>84.25</ele>
        <time>2026-08-29T09:47:25Z</time>
      </trkpt>
      <trkpt lat="60.249848216772079" lon="30.493181515485048">
        <ele>84.25</ele>
        <time>2026-08-29T09:47:42Z</time>
      </trkpt>
      <trkpt lat="60.249857604503632" lon="30.49314932897687">
        <ele>83.769999999999996</ele>
        <time>2026-08-29T09:48:13Z</time>
      </trkpt>
      <trkpt lat="60.249737491831183" lon="30.49302913248539">
        <ele>83.769999999999996</ele>
        <time>2026-08-29T09:48:28Z</time>
      </trkpt>
      <trkpt lat="60.249691056087613" lon="30.493004405871034">
        <ele>83.769999999999996</ele>
        <time>2026-08-29T09:48:34Z</time>
      </trkpt>
      <trkpt lat="60.249647386372089" lon="30.492941876873374">
        <ele>83.769999999999996</ele>
        <time>2026-08-29T09:48:47Z</time>
      </trkpt>
      <trkpt lat="60.249587623402476" lon="30.492806173861027">
        <ele>83.769999999999996</ele>
        <time>2026-08-29T09:49:02Z</time>
      </trkpt>
      <trkpt lat="60.249577648937702" lon="30.492708859965205">
        <ele>83.769999999999996</ele>
        <time>2026-08-29T09:49:12Z</time>
      </trkpt>
      <trkpt lat="60.249599358066916" lon="30.492619760334492">
        <ele>83.769999999999996</ele>
        <time>2026-08-29T09:49:19Z</time>
      </trkpt>
      <trkpt lat="60.249688373878598" lon="30.492574414238334">
        <ele>83.769999999999996</ele>
        <time>2026-08-29T09:49:33Z</time>
      </trkpt>
      <trkpt lat="60.249660713598132" lon="30.492446422576904">
        <ele>83.769999999999996</ele>
        <time>2026-08-29T09:49:52Z</time>
      </trkpt>
      <trkpt lat="60.24963179603219" lon="30.492323711514473">
        <ele>83.769999999999996</ele>
        <time>2026-08-29T09:50:11Z</time>
      </trkpt>
      <trkpt lat="60.249614110216498" lon="30.492265792563558">
        <ele>83.769999999999996</ele>
        <time>2026-08-29T09:50:18Z</time>
      </trkpt>
      <trkpt lat="60.249547138810158" lon="30.492105949670076">
        <ele>83.769999999999996</ele>
        <time>2026-08-29T09:50:29Z</time>
      </trkpt>
      <trkpt lat="60.249541774392128" lon="30.492021711543202">
        <ele>83.769999999999996</ele>
        <time>2026-08-29T09:50:38Z</time>
      </trkpt>
      <trkpt lat="60.249525178223848" lon="30.491820713505149">
        <ele>84.730000000000004</ele>
        <time>2026-08-29T09:50:50Z</time>
      </trkpt>
      <trkpt lat="60.249625593423843" lon="30.49165315926075">
        <ele>84.730000000000004</ele>
        <time>2026-08-29T09:51:04Z</time>
      </trkpt>
      <trkpt lat="60.249630287289619" lon="30.491406312212348">
        <ele>84.730000000000004</ele>
        <time>2026-08-29T09:51:21Z</time>
      </trkpt>
      <trkpt lat="60.249653588980436" lon="30.491173043847084">
        <ele>84.730000000000004</ele>
        <time>2026-08-29T09:51:39Z</time>
      </trkpt>
      <trkpt lat="60.249866237863898" lon="30.490899123251438">
        <ele>84.730000000000004</ele>
        <time>2026-08-29T09:52:03Z</time>
      </trkpt>
      <trkpt lat="60.249828854575753" lon="30.490614976733923">
        <ele>84.730000000000004</ele>
        <time>2026-08-29T09:52:20Z</time>
      </trkpt>
      <trkpt lat="60.24973095394671" lon="30.490043163299561">
        <ele>84.730000000000004</ele>
        <time>2026-08-29T09:52:58Z</time>
      </trkpt>
      <trkpt lat="60.249728607013822" lon="30.490034278482199">
        <ele>85.689999999999998</ele>
        <time>2026-08-29T09:53:18Z</time>
      </trkpt>
      <trkpt lat="60.249723494052887" lon="30.489917686209083">
        <ele>85.689999999999998</ele>
        <time>2026-08-29T09:53:47Z</time>
      </trkpt>
      <trkpt lat="60.249838996678591" lon="30.489674611017108">
        <ele>85.689999999999998</ele>
        <time>2026-08-29T09:54:07Z</time>
      </trkpt>
      <trkpt lat="60.24994351901114" lon="30.489548128098249">
        <ele>85.689999999999998</ele>
        <time>2026-08-29T09:54:27Z</time>
      </trkpt>
      <trkpt lat="60.249919882044196" lon="30.489281080663204">
        <ele>85.689999999999998</ele>
        <time>2026-08-29T09:54:44Z</time>
      </trkpt>
      <trkpt lat="60.249808318912983" lon="30.489137414842844">
        <ele>85.689999999999998</ele>
        <time>2026-08-29T09:55:00Z</time>
      </trkpt>
      <trkpt lat="60.249787950888276" lon="30.488801803439856">
        <ele>86.180000000000007</ele>
        <time>2026-08-29T09:55:26Z</time>
      </trkpt>
      <trkpt lat="60.249826172366738" lon="30.488426461815834">
        <ele>87.140000000000001</ele>
        <time>2026-08-29T09:55:47Z</time>
      </trkpt>
      <trkpt lat="60.249872943386436" lon="30.488255135715008">
        <ele>87.140000000000001</ele>
        <time>2026-08-29T09:56:05Z</time>
      </trkpt>
      <trkpt lat="60.249883169308305" lon="30.48804416321218">
        <ele>87.140000000000001</ele>
        <time>2026-08-29T09:56:21Z</time>
      </trkpt>
      <trkpt lat="60.24990051984787" lon="30.487692793831229">
        <ele>87.140000000000001</ele>
        <time>2026-08-29T09:56:47Z</time>
      </trkpt>
      <trkpt lat="60.250036306679249" lon="30.48731024377048">
        <ele>86.180000000000007</ele>
        <time>2026-08-29T09:57:23Z</time>
      </trkpt>
      <trkpt lat="60.250144517049193" lon="30.487014865502715">
        <ele>85.209999999999994</ele>
        <time>2026-08-29T09:57:53Z</time>
      </trkpt>
      <trkpt lat="60.250117108225822" lon="30.486884191632271">
        <ele>85.209999999999994</ele>
        <time>2026-08-29T09:58:50Z</time>
      </trkpt>
      <trkpt lat="60.250221379101276" lon="30.486837001517415">
        <ele>85.689999999999998</ele>
        <time>2026-08-29T09:59:26Z</time>
      </trkpt>
      <trkpt lat="60.250174105167389" lon="30.486860387027264">
        <ele>85.689999999999998</ele>
        <time>2026-08-29T10:00:00Z</time>
      </trkpt>
      <trkpt lat="60.250129345804453" lon="30.486753853037953">
        <ele>86.180000000000007</ele>
        <time>2026-08-29T10:00:38Z</time>
      </trkpt>
      <trkpt lat="60.250207800418139" lon="30.486812777817249">
        <ele>86.180000000000007</ele>
        <time>2026-08-29T10:01:18Z</time>
      </trkpt>
      <trkpt lat="60.250169327482581" lon="30.4868377558887">
        <ele>86.180000000000007</ele>
        <time>2026-08-29T10:01:59Z</time>
      </trkpt>
      <trkpt lat="60.250098165124655" lon="30.486729545518756">
        <ele>86.659999999999997</ele>
        <time>2026-08-29T10:02:08Z</time>
      </trkpt>
      <trkpt lat="60.250094812363386" lon="30.486581018194556">
        <ele>86.659999999999997</ele>
        <time>2026-08-29T10:02:22Z</time>
      </trkpt>
      <trkpt lat="60.250088693574071" lon="30.486543802544475">
        <ele>86.659999999999997</ele>
        <time>2026-08-29T10:02:34Z</time>
      </trkpt>
      <trkpt lat="60.250096656382084" lon="30.486523350700736">
        <ele>86.180000000000007</ele>
        <time>2026-08-29T10:02:47Z</time>
      </trkpt>
      <trkpt lat="60.250086598098278" lon="30.486457804217935">
        <ele>86.180000000000007</ele>
        <time>2026-08-29T10:03:10Z</time>
      </trkpt>
      <trkpt lat="60.250116689130664" lon="30.486481608822942">
        <ele>86.180000000000007</ele>
        <time>2026-08-29T10:03:29Z</time>
      </trkpt>
      <trkpt lat="60.250100763514638" lon="30.486441375687718">
        <ele>86.180000000000007</ele>
        <time>2026-08-29T10:03:48Z</time>
      </trkpt>
      <trkpt lat="60.250059524551034" lon="30.48644338734448">
        <ele>86.180000000000007</ele>
        <time>2026-08-29T10:04:02Z</time>
      </trkpt>
      <trkpt lat="60.250048795714974" lon="30.486446907743812">
        <ele>86.180000000000007</ele>
        <time>2026-08-29T10:04:08Z</time>
      </trkpt>
      <trkpt lat="60.250010071322322" lon="30.48654212616384">
        <ele>86.180000000000007</ele>
        <time>2026-08-29T10:04:22Z</time>
      </trkpt>
      <trkpt lat="60.249991631135345" lon="30.486479932442307">
        <ele>86.180000000000007</ele>
        <time>2026-08-29T10:04:37Z</time>
      </trkpt>
      <trkpt lat="60.250013843178749" lon="30.486394437029958">
        <ele>86.180000000000007</ele>
        <time>2026-08-29T10:04:51Z</time>
      </trkpt>
      <trkpt lat="60.250021805986762" lon="30.486234175041318">
        <ele>86.180000000000007</ele>
        <time>2026-08-29T10:05:04Z</time>
      </trkpt>
      <trkpt lat="60.250017363578081" lon="30.48620106652379">
        <ele>86.180000000000007</ele>
        <time>2026-08-29T10:05:05Z</time>
      </trkpt>
      <trkpt lat="60.250033959746361" lon="30.486048012971878">
        <ele>86.180000000000007</ele>
        <time>2026-08-29T10:05:17Z</time>
      </trkpt>
      <trkpt lat="60.249981740489602" lon="30.485857492312789">
        <ele>86.180000000000007</ele>
        <time>2026-08-29T10:05:29Z</time>
      </trkpt>
      <trkpt lat="60.249971346929669" lon="30.485652973875403">
        <ele>86.180000000000007</ele>
        <time>2026-08-29T10:05:41Z</time>
      </trkpt>
      <trkpt lat="60.250024823471904" lon="30.485476870089769">
        <ele>86.180000000000007</ele>
        <time>2026-08-29T10:05:53Z</time>
      </trkpt>
      <trkpt lat="60.250040329992771" lon="30.485437642782927">
        <ele>86.180000000000007</ele>
        <time>2026-08-29T10:05:55Z</time>
      </trkpt>
      <trkpt lat="60.249997414648533" lon="30.485279643908143">
        <ele>86.180000000000007</ele>
        <time>2026-08-29T10:06:09Z</time>
      </trkpt>
      <trkpt lat="60.249953493475914" lon="30.485101696103811">
        <ele>86.180000000000007</ele>
        <time>2026-08-29T10:06:24Z</time>
      </trkpt>
      <trkpt lat="60.249933879822493" lon="30.485021816566586">
        <ele>86.180000000000007</ele>
        <time>2026-08-29T10:06:30Z</time>
      </trkpt>
      <trkpt lat="60.249915942549706" lon="30.484881419688463">
        <ele>86.180000000000007</ele>
        <time>2026-08-29T10:06:45Z</time>
      </trkpt>
      <trkpt lat="60.249861963093281" lon="30.484743202105165">
        <ele>86.180000000000007</ele>
        <time>2026-08-29T10:07:00Z</time>
      </trkpt>
      <trkpt lat="60.249840673059225" lon="30.484680254012346">
        <ele>86.180000000000007</ele>
        <time>2026-08-29T10:07:08Z</time>
      </trkpt>
      <trkpt lat="60.249778730794787" lon="30.484649492427707">
        <ele>86.180000000000007</ele>
        <time>2026-08-29T10:07:23Z</time>
      </trkpt>
      <trkpt lat="60.249802870675921" lon="30.484632728621364">
        <ele>86.180000000000007</ele>
        <time>2026-08-29T10:08:07Z</time>
      </trkpt>
      <trkpt lat="60.249803122133017" lon="30.48468972556293">
        <ele>86.180000000000007</ele>
        <time>2026-08-29T10:08:49Z</time>
      </trkpt>
      <trkpt lat="60.249799182638526" lon="30.484690647572279">
        <ele>86.180000000000007</ele>
        <time>2026-08-29T10:09:17Z</time>
      </trkpt>
      <trkpt lat="60.249782418832183" lon="30.484677320346236">
        <ele>86.180000000000007</ele>
        <time>2026-08-29T10:09:27Z</time>
      </trkpt>
      <trkpt lat="60.249753165990114" lon="30.48464722931385">
        <ele>86.180000000000007</ele>
        <time>2026-08-29T10:09:51Z</time>
      </trkpt>
      <trkpt lat="60.24976565502584" lon="30.484645385295153">
        <ele>86.180000000000007</ele>
        <time>2026-08-29T10:10:19Z</time>
      </trkpt>
      <trkpt lat="60.249789794906974" lon="30.484676146879792">
        <ele>86.180000000000007</ele>
        <time>2026-08-29T10:10:40Z</time>
      </trkpt>
      <trkpt lat="60.249719973653555" lon="30.484755104407668">
        <ele>87.140000000000001</ele>
        <time>2026-08-29T10:10:52Z</time>
      </trkpt>
      <trkpt lat="60.249670017510653" lon="30.484683942049742">
        <ele>87.620000000000005</ele>
        <time>2026-08-29T10:11:03Z</time>
      </trkpt>
      <trkpt lat="60.24961176328361" lon="30.484597524628043">
        <ele>88.579999999999998</ele>
        <time>2026-08-29T10:11:16Z</time>
      </trkpt>
      <trkpt lat="60.249519059434533" lon="30.484515130519867">
        <ele>88.579999999999998</ele>
        <time>2026-08-29T10:11:29Z</time>
      </trkpt>
      <trkpt lat="60.2494275290519" lon="30.484468443319201">
        <ele>88.579999999999998</ele>
        <time>2026-08-29T10:11:44Z</time>
      </trkpt>
      <trkpt lat="60.249368688091636" lon="30.484437178820372">
        <ele>88.579999999999998</ele>
        <time>2026-08-29T10:11:59Z</time>
      </trkpt>
      <trkpt lat="60.249329460784793" lon="30.484411949291825">
        <ele>88.579999999999998</ele>
        <time>2026-08-29T10:12:12Z</time>
      </trkpt>
      <trkpt lat="60.249324599280953" lon="30.484416391700506">
        <ele>88.579999999999998</ele>
        <time>2026-08-29T10:12:38Z</time>
      </trkpt>
      <trkpt lat="60.249287215992808" lon="30.484405243769288">
        <ele>88.579999999999998</ele>
        <time>2026-08-29T10:13:25Z</time>
      </trkpt>
      <trkpt lat="60.24931219406426" lon="30.484525272622705">
        <ele>88.579999999999998</ele>
        <time>2026-08-29T10:14:08Z</time>
      </trkpt>
      <trkpt lat="60.249296771362424" lon="30.484644966199994">
        <ele>88.579999999999998</ele>
        <time>2026-08-29T10:14:19Z</time>
      </trkpt>
      <trkpt lat="60.249310098588467" lon="30.484759462997317">
        <ele>88.579999999999998</ele>
        <time>2026-08-29T10:14:32Z</time>
      </trkpt>
      <trkpt lat="60.249295430257916" lon="30.484921066090465">
        <ele>90.5</ele>
        <time>2026-08-29T10:14:44Z</time>
      </trkpt>
      <trkpt lat="60.249284952878952" lon="30.485045202076435">
        <ele>92.420000000000002</ele>
        <time>2026-08-29T10:14:55Z</time>
      </trkpt>
      <trkpt lat="60.249269613996148" lon="30.485183754935861">
        <ele>94.349999999999994</ele>
        <time>2026-08-29T10:15:07Z</time>
      </trkpt>
      <trkpt lat="60.249237343668938" lon="30.485277799889445">
        <ele>95.790000000000006</ele>
        <time>2026-08-29T10:15:22Z</time>
      </trkpt>
      <trkpt lat="60.249249078333378" lon="30.485322140157223">
        <ele>95.790000000000006</ele>
        <time>2026-08-29T10:15:25Z</time>
      </trkpt>
      <trkpt lat="60.24928922764957" lon="30.485526155680418">
        <ele>96.269999999999996</ele>
        <time>2026-08-29T10:15:38Z</time>
      </trkpt>
      <trkpt lat="60.24931856431067" lon="30.485656745731831">
        <ele>96.269999999999996</ele>
        <time>2026-08-29T10:15:48Z</time>
      </trkpt>
      <trkpt lat="60.249441443011165" lon="30.485858749598265">
        <ele>93.870000000000005</ele>
        <time>2026-08-29T10:16:06Z</time>
      </trkpt>
      <trkpt lat="60.249418560415506" lon="30.486217746511102">
        <ele>90.980000000000004</ele>
        <time>2026-08-29T10:16:29Z</time>
      </trkpt>
      <trkpt lat="60.249396180734038" lon="30.486509101465344">
        <ele>90.019999999999996</ele>
        <time>2026-08-29T10:16:47Z</time>
      </trkpt>
      <trkpt lat="60.249390061944723" lon="30.486697778105736">
        <ele>89.540000000000006</ele>
        <time>2026-08-29T10:17:03Z</time>
      </trkpt>
      <trkpt lat="60.249310014769435" lon="30.486932974308729">
        <ele>90.5</ele>
        <time>2026-08-29T10:17:42Z</time>
      </trkpt>
      <trkpt lat="60.249220076948404" lon="30.486912773922086">
        <ele>90.5</ele>
        <time>2026-08-29T10:18:05Z</time>
      </trkpt>
      <trkpt lat="60.249172216281295" lon="30.487144617363811">
        <ele>92.900000000000006</ele>
        <time>2026-08-29T10:18:24Z</time>
      </trkpt>
      <trkpt lat="60.249147238209844" lon="30.487220641225576">
        <ele>96.269999999999996</ele>
        <time>2026-08-29T10:18:45Z</time>
      </trkpt>
      <trkpt lat="60.249130222946405" lon="30.487480061128736">
        <ele>99.150000000000006</ele>
        <time>2026-08-29T10:19:07Z</time>
      </trkpt>
      <trkpt lat="60.249071968719363" lon="30.487598832696676">
        <ele>102.52</ele>
        <time>2026-08-29T10:19:31Z</time>
      </trkpt>
      <trkpt lat="60.249031484127045" lon="30.487691620364785">
        <ele>103.95999999999999</ele>
        <time>2026-08-29T10:19:53Z</time>
      </trkpt>
      <trkpt lat="60.249078590422869" lon="30.487680723890662">
        <ele>103.48</ele>
        <time>2026-08-29T10:20:29Z</time>
      </trkpt>
      <trkpt lat="60.249028299003839" lon="30.487797819077969">
        <ele>103.48</ele>
        <time>2026-08-29T10:21:01Z</time>
      </trkpt>
      <trkpt lat="60.249149417504668" lon="30.488180452957749">
        <ele>101.08</ele>
        <time>2026-08-29T10:21:28Z</time>
      </trkpt>
      <trkpt lat="60.249165846034884" lon="30.48835881985724">
        <ele>100.11</ele>
        <time>2026-08-29T10:21:42Z</time>
      </trkpt>
      <trkpt lat="60.249232985079288" lon="30.488450014963746">
        <ele>99.629999999999995</ele>
        <time>2026-08-29T10:22:04Z</time>
      </trkpt>
      <trkpt lat="60.249369777739048" lon="30.488468706607819">
        <ele>99.150000000000006</ele>
        <time>2026-08-29T10:22:24Z</time>
      </trkpt>
      <trkpt lat="60.249422835186124" lon="30.488467197865248">
        <ele>100.59999999999999</ele>
        <time>2026-08-29T10:22:37Z</time>
      </trkpt>
      <trkpt lat="60.249452674761415" lon="30.48856258392334">
        <ele>100.59999999999999</ele>
        <time>2026-08-29T10:22:49Z</time>
      </trkpt>
      <trkpt lat="60.249457955360413" lon="30.488490834832191">
        <ele>100.59999999999999</ele>
        <time>2026-08-29T10:23:03Z</time>
      </trkpt>
      <trkpt lat="60.249477652832866" lon="30.488495696336031">
        <ele>100.59999999999999</ele>
        <time>2026-08-29T10:23:23Z</time>
      </trkpt>
      <trkpt lat="60.249475222080946" lon="30.48849075101316">
        <ele>100.59999999999999</ele>
        <time>2026-08-29T10:23:50Z</time>
      </trkpt>
      <trkpt lat="60.249527944251895" lon="30.488429814577103">
        <ele>100.59999999999999</ele>
        <time>2026-08-29T10:24:02Z</time>
      </trkpt>
      <trkpt lat="60.249518472701311" lon="30.488560907542706">
        <ele>99.150000000000006</ele>
        <time>2026-08-29T10:24:17Z</time>
      </trkpt>
      <trkpt lat="60.249512018635869" lon="30.488601559773088">
        <ele>99.150000000000006</ele>
        <time>2026-08-29T10:24:46Z</time>
      </trkpt>
      <trkpt lat="60.249467259272933" lon="30.488554034382105">
        <ele>99.150000000000006</ele>
        <time>2026-08-29T10:25:12Z</time>
      </trkpt>
      <trkpt lat="60.249471701681614" lon="30.488480776548386">
        <ele>100.11</ele>
        <time>2026-08-29T10:25:26Z</time>
      </trkpt>
      <trkpt lat="60.249409256502986" lon="30.488358149304986">
        <ele>100.59999999999999</ele>
        <time>2026-08-29T10:25:51Z</time>
      </trkpt>
      <trkpt lat="60.249326275661588" lon="30.488527547568083">
        <ele>100.59999999999999</ele>
        <time>2026-08-29T10:26:06Z</time>
      </trkpt>
      <trkpt lat="60.249287635087967" lon="30.488621508702636">
        <ele>100.59999999999999</ele>
        <time>2026-08-29T10:26:16Z</time>
      </trkpt>
      <trkpt lat="60.249285539612174" lon="30.488625196740031">
        <ele>100.59999999999999</ele>
        <time>2026-08-29T10:26:17Z</time>
      </trkpt>
      <trkpt lat="60.249225609004498" lon="30.488789230585098">
        <ele>98.670000000000002</ele>
        <time>2026-08-29T10:26:31Z</time>
      </trkpt>
      <trkpt lat="60.249148411676288" lon="30.488961646333337">
        <ele>96.75</ele>
        <time>2026-08-29T10:26:46Z</time>
      </trkpt>
      <trkpt lat="60.249109519645572" lon="30.488986372947693">
        <ele>96.269999999999996</ele>
        <time>2026-08-29T10:26:51Z</time>
      </trkpt>
      <trkpt lat="60.248987143859267" lon="30.489173959940672">
        <ele>95.310000000000002</ele>
        <time>2026-08-29T10:27:07Z</time>
      </trkpt>
      <trkpt lat="60.248998375609517" lon="30.489176055416465">
        <ele>94.829999999999998</ele>
        <time>2026-08-29T10:27:25Z</time>
      </trkpt>
      <trkpt lat="60.249021090567112" lon="30.489157866686583">
        <ele>94.349999999999994</ele>
        <time>2026-08-29T10:27:52Z</time>
      </trkpt>
      <trkpt lat="60.248998207971454" lon="30.489183180034161">
        <ele>94.349999999999994</ele>
        <time>2026-08-29T10:28:13Z</time>
      </trkpt>
      <trkpt lat="60.248934421688318" lon="30.489173121750355">
        <ele>93.870000000000005</ele>
        <time>2026-08-29T10:28:27Z</time>
      </trkpt>
      <trkpt lat="60.248928051441908" lon="30.489194244146347">
        <ele>93.870000000000005</ele>
        <time>2026-08-29T10:28:58Z</time>
      </trkpt>
      <trkpt lat="60.248933751136065" lon="30.489157950505614">
        <ele>93.870000000000005</ele>
        <time>2026-08-29T10:29:14Z</time>
      </trkpt>
      <trkpt lat="60.248933583498001" lon="30.489162895828485">
        <ele>93.870000000000005</ele>
        <time>2026-08-29T10:29:22Z</time>
      </trkpt>
      <trkpt lat="60.248882370069623" lon="30.48920857720077">
        <ele>93.870000000000005</ele>
        <time>2026-08-29T10:29:49Z</time>
      </trkpt>
      <trkpt lat="60.248920759186149" lon="30.489336987957358">
        <ele>94.349999999999994</ele>
        <time>2026-08-29T10:30:03Z</time>
      </trkpt>
      <trkpt lat="60.248983455821872" lon="30.489469673484564">
        <ele>94.349999999999994</ele>
        <time>2026-08-29T10:30:15Z</time>
      </trkpt>
      <trkpt lat="60.248960740864277" lon="30.489582493901253">
        <ele>95.310000000000002</ele>
        <time>2026-08-29T10:30:30Z</time>
      </trkpt>
      <trkpt lat="60.248916232958436" lon="30.489725489169359">
        <ele>96.75</ele>
        <time>2026-08-29T10:31:05Z</time>
      </trkpt>
      <trkpt lat="60.248924614861608" lon="30.489756669849157">
        <ele>97.230000000000004</ele>
        <time>2026-08-29T10:31:14Z</time>
      </trkpt>
      <trkpt lat="60.248929979279637" lon="30.489797741174698">
        <ele>97.709999999999994</ele>
        <time>2026-08-29T10:31:25Z</time>
      </trkpt>
      <trkpt lat="60.248959818854928" lon="30.489840488880873">
        <ele>97.709999999999994</ele>
        <time>2026-08-29T10:32:00Z</time>
      </trkpt>
      <trkpt lat="60.249026035889983" lon="30.489878542721272">
        <ele>97.709999999999994</ele>
        <time>2026-08-29T10:32:31Z</time>
      </trkpt>
      <trkpt lat="60.249034753069282" lon="30.489958841353655">
        <ele>96.269999999999996</ele>
        <time>2026-08-29T10:32:42Z</time>
      </trkpt>
      <trkpt lat="60.248977756127715" lon="30.490083647891879">
        <ele>93.870000000000005</ele>
        <time>2026-08-29T10:32:56Z</time>
      </trkpt>
      <trkpt lat="60.248945653438568" lon="30.490265367552638">
        <ele>91.459999999999994</ele>
        <time>2026-08-29T10:33:09Z</time>
      </trkpt>
      <trkpt lat="60.248948251828551" lon="30.49040568061173">
        <ele>90.5</ele>
        <time>2026-08-29T10:33:21Z</time>
      </trkpt>
      <trkpt lat="60.248965099453926" lon="30.490641631186008">
        <ele>89.540000000000006</ele>
        <time>2026-08-29T10:33:36Z</time>
      </trkpt>
      <trkpt lat="60.248996866866946" lon="30.490854112431407">
        <ele>88.579999999999998</ele>
        <time>2026-08-29T10:33:51Z</time>
      </trkpt>
      <trkpt lat="60.248971721157432" lon="30.491116382181644">
        <ele>87.620000000000005</ele>
        <time>2026-08-29T10:34:10Z</time>
      </trkpt>
      <trkpt lat="60.248990831896663" lon="30.49139566719532">
        <ele>87.140000000000001</ele>
        <time>2026-08-29T10:34:37Z</time>
      </trkpt>
      <trkpt lat="60.249018995091319" lon="30.49168149009347">
        <ele>86.659999999999997</ele>
        <time>2026-08-29T10:34:53Z</time>
      </trkpt>
      <trkpt lat="60.249126618728042" lon="30.491884332150221">
        <ele>86.659999999999997</ele>
        <time>2026-08-29T10:35:12Z</time>
      </trkpt>
      <trkpt lat="60.24917297065258" lon="30.492200162261724">
        <ele>86.180000000000007</ele>
        <time>2026-08-29T10:35:33Z</time>
      </trkpt>
      <trkpt lat="60.249124271795154" lon="30.492398478090763">
        <ele>86.180000000000007</ele>
        <time>2026-08-29T10:35:50Z</time>
      </trkpt>
      <trkpt lat="60.249084290117025" lon="30.492601906880736">
        <ele>86.180000000000007</ele>
        <time>2026-08-29T10:36:06Z</time>
      </trkpt>
      <trkpt lat="60.249044140800834" lon="30.492870965972543">
        <ele>86.180000000000007</ele>
        <time>2026-08-29T10:36:24Z</time>
      </trkpt>
      <trkpt lat="60.249059982597828" lon="30.492951096966863">
        <ele>86.180000000000007</ele>
        <time>2026-08-29T10:36:44Z</time>
      </trkpt>
      <trkpt lat="60.249005751684308" lon="30.492905918508768">
        <ele>86.180000000000007</ele>
        <time>2026-08-29T10:37:20Z</time>
      </trkpt>
      <trkpt lat="60.248967949301004" lon="30.492888651788235">
        <ele>86.180000000000007</ele>
        <time>2026-08-29T10:37:45Z</time>
      </trkpt>
      <trkpt lat="60.249018575996161" lon="30.49292704090476">
        <ele>86.180000000000007</ele>
        <time>2026-08-29T10:38:17Z</time>
      </trkpt>
      <trkpt lat="60.248911790549755" lon="30.492887226864696">
        <ele>85.689999999999998</ele>
        <time>2026-08-29T10:38:34Z</time>
      </trkpt>
      <trkpt lat="60.248922519385815" lon="30.492601068690419">
        <ele>85.689999999999998</ele>
        <time>2026-08-29T10:38:51Z</time>
      </trkpt>
      <trkpt lat="60.248812045902014" lon="30.49262847751379">
        <ele>85.689999999999998</ele>
        <time>2026-08-29T10:39:10Z</time>
      </trkpt>
      <trkpt lat="60.248623955994844" lon="30.492768874391913">
        <ele>85.689999999999998</ele>
        <time>2026-08-29T10:39:40Z</time>
      </trkpt>
      <trkpt lat="60.248503088951111" lon="30.49272570759058">
        <ele>86.659999999999997</ele>
        <time>2026-08-29T10:39:58Z</time>
      </trkpt>
      <trkpt lat="60.248451540246606" lon="30.492666279897094">
        <ele>86.659999999999997</ele>
        <time>2026-08-29T10:40:21Z</time>
      </trkpt>
      <trkpt lat="60.248444583266973" lon="30.492549939081073">
        <ele>86.659999999999997</ele>
        <time>2026-08-29T10:40:46Z</time>
      </trkpt>
      <trkpt lat="60.24844097904861" lon="30.492392024025321">
        <ele>86.659999999999997</ele>
        <time>2026-08-29T10:40:56Z</time>
      </trkpt>
      <trkpt lat="60.24846930988133" lon="30.492271073162556">
        <ele>86.659999999999997</ele>
        <time>2026-08-29T10:41:07Z</time>
      </trkpt>
      <trkpt lat="60.248346095904708" lon="30.492141991853714">
        <ele>86.659999999999997</ele>
        <time>2026-08-29T10:41:27Z</time>
      </trkpt>
      <trkpt lat="60.248345090076327" lon="30.491980304941535">
        <ele>86.659999999999997</ele>
        <time>2026-08-29T10:41:42Z</time>
      </trkpt>
      <trkpt lat="60.248345592990518" lon="30.49174795858562">
        <ele>86.180000000000007</ele>
        <time>2026-08-29T10:41:55Z</time>
      </trkpt>
      <trkpt lat="60.248330589383841" lon="30.491706049069762">
        <ele>86.180000000000007</ele>
        <time>2026-08-29T10:41:59Z</time>
      </trkpt>
      <trkpt lat="60.248296391218901" lon="30.491582499817014">
        <ele>86.180000000000007</ele>
        <time>2026-08-29T10:42:11Z</time>
      </trkpt>
      <trkpt lat="60.248325224965811" lon="30.491393739357591">
        <ele>86.180000000000007</ele>
        <time>2026-08-29T10:42:22Z</time>
      </trkpt>
      <trkpt lat="60.248373253270984" lon="30.491164494305849">
        <ele>86.180000000000007</ele>
        <time>2026-08-29T10:42:37Z</time>
      </trkpt>
      <trkpt lat="60.248410636559129" lon="30.49099400639534">
        <ele>86.180000000000007</ele>
        <time>2026-08-29T10:42:51Z</time>
      </trkpt>
      <trkpt lat="60.248350538313389" lon="30.49089141190052">
        <ele>86.180000000000007</ele>
        <time>2026-08-29T10:43:08Z</time>
      </trkpt>
      <trkpt lat="60.248321034014225" lon="30.490761995315552">
        <ele>88.579999999999998</ele>
        <time>2026-08-29T10:43:28Z</time>
      </trkpt>
      <trkpt lat="60.248344168066978" lon="30.490724444389343">
        <ele>89.060000000000002</ele>
        <time>2026-08-29T10:43:34Z</time>
      </trkpt>
      <trkpt lat="60.24834911338985" lon="30.490652862936258">
        <ele>90.980000000000004</ele>
        <time>2026-08-29T10:43:55Z</time>
      </trkpt>
      <trkpt lat="60.248429160565138" lon="30.490620592609048">
        <ele>93.390000000000001</ele>
        <time>2026-08-29T10:44:11Z</time>
      </trkpt>
      <trkpt lat="60.248453635722399" lon="30.490483213216066">
        <ele>96.269999999999996</ele>
        <time>2026-08-29T10:44:31Z</time>
      </trkpt>
      <trkpt lat="60.24845221079886" lon="30.49035144969821">
        <ele>98.670000000000002</ele>
        <time>2026-08-29T10:44:48Z</time>
      </trkpt>
      <trkpt lat="60.248434860259295" lon="30.490205520763993">
        <ele>100.59999999999999</ele>
        <time>2026-08-29T10:45:06Z</time>
      </trkpt>
      <trkpt lat="60.248426059260964" lon="30.490186493843794">
        <ele>101.08</ele>
        <time>2026-08-29T10:45:11Z</time>
      </trkpt>
      <trkpt lat="60.248413402587175" lon="30.490284562110901">
        <ele>101.08</ele>
        <time>2026-08-29T10:45:41Z</time>
      </trkpt>
      <trkpt lat="60.24840384721756" lon="30.490238210186362">
        <ele>100.59999999999999</ele>
        <time>2026-08-29T10:46:21Z</time>
      </trkpt>
      <trkpt lat="60.24842144921422" lon="30.490346755832434">
        <ele>100.59999999999999</ele>
        <time>2026-08-29T10:46:38Z</time>
      </trkpt>
      <trkpt lat="60.248387334868312" lon="30.49014282412827">
        <ele>100.59999999999999</ele>
        <time>2026-08-29T10:47:00Z</time>
      </trkpt>
      <trkpt lat="60.248402589932084" lon="30.490134106948972">
        <ele>100.59999999999999</ele>
        <time>2026-08-29T10:47:08Z</time>
      </trkpt>
      <trkpt lat="60.248460089787841" lon="30.490127736702561">
        <ele>100.11</ele>
        <time>2026-08-29T10:47:44Z</time>
      </trkpt>
      <trkpt lat="60.248432094231248" lon="30.490150451660156">
        <ele>100.11</ele>
        <time>2026-08-29T10:48:09Z</time>
      </trkpt>
      <trkpt lat="60.248399069532752" lon="30.490210298448801">
        <ele>100.11</ele>
        <time>2026-08-29T10:48:41Z</time>
      </trkpt>
      <trkpt lat="60.248441733419895" lon="30.490229409188032">
        <ele>99.629999999999995</ele>
        <time>2026-08-29T10:49:14Z</time>
      </trkpt>
      <trkpt lat="60.248457239940763" lon="30.490189846605062">
        <ele>99.629999999999995</ele>
        <time>2026-08-29T10:49:44Z</time>
      </trkpt>
      <trkpt lat="60.248427651822567" lon="30.490183057263494">
        <ele>99.629999999999995</ele>
        <time>2026-08-29T10:50:03Z</time>
      </trkpt>
      <trkpt lat="60.248406110331416" lon="30.490286992862821">
        <ele>99.629999999999995</ele>
        <time>2026-08-29T10:50:30Z</time>
      </trkpt>
      <trkpt lat="60.248479200527072" lon="30.490320939570665">
        <ele>100.11</ele>
        <time>2026-08-29T10:50:56Z</time>
      </trkpt>
      <trkpt lat="60.248489929363132" lon="30.49025128595531">
        <ele>100.11</ele>
        <time>2026-08-29T10:51:41Z</time>
      </trkpt>
      <trkpt lat="60.248448774218559" lon="30.490263858810067">
        <ele>100.11</ele>
        <time>2026-08-29T10:52:10Z</time>
      </trkpt>
      <trkpt lat="60.248442320153117" lon="30.490172328427434">
        <ele>100.11</ele>
        <time>2026-08-29T10:52:52Z</time>
      </trkpt>
      <trkpt lat="60.248455563560128" lon="30.490155648440123">
        <ele>100.11</ele>
        <time>2026-08-29T10:53:18Z</time>
      </trkpt>
      <trkpt lat="60.248481715098023" lon="30.490201665088534">
        <ele>100.59999999999999</ele>
        <time>2026-08-29T10:53:58Z</time>
      </trkpt>
      <trkpt lat="60.248488923534751" lon="30.490208035334945">
        <ele>100.59999999999999</ele>
        <time>2026-08-29T10:54:00Z</time>
      </trkpt>
      <trkpt lat="60.248422203585505" lon="30.490182638168335">
        <ele>101.08</ele>
        <time>2026-08-29T10:54:19Z</time>
      </trkpt>
      <trkpt lat="60.248436536639929" lon="30.49014575779438">
        <ele>100.59999999999999</ele>
        <time>2026-08-29T10:54:38Z</time>
      </trkpt>
      <trkpt lat="60.248444834724069" lon="30.49001676030457">
        <ele>100.59999999999999</ele>
        <time>2026-08-29T10:54:50Z</time>
      </trkpt>
      <trkpt lat="60.24843318387866" lon="30.489896647632122">
        <ele>100.59999999999999</ele>
        <time>2026-08-29T10:55:03Z</time>
      </trkpt>
      <trkpt lat="60.248444080352783" lon="30.489742085337639">
        <ele>100.59999999999999</ele>
        <time>2026-08-29T10:55:19Z</time>
      </trkpt>
      <trkpt lat="60.248456820845604" lon="30.48951543867588">
        <ele>100.59999999999999</ele>
        <time>2026-08-29T10:55:33Z</time>
      </trkpt>
      <trkpt lat="60.24846201762557" lon="30.489246128126979">
        <ele>101.08</ele>
        <time>2026-08-29T10:55:51Z</time>
      </trkpt>
      <trkpt lat="60.248358082026243" lon="30.489224083721638">
        <ele>101.08</ele>
        <time>2026-08-29T10:56:06Z</time>
      </trkpt>
      <trkpt lat="60.248313993215561" lon="30.489129787310958">
        <ele>101.08</ele>
        <time>2026-08-29T10:56:19Z</time>
      </trkpt>
      <trkpt lat="60.2483119815588" lon="30.488954102620482">
        <ele>101.08</ele>
        <time>2026-08-29T10:56:33Z</time>
      </trkpt>
      <trkpt lat="60.248348442837596" lon="30.488782357424498">
        <ele>100.59999999999999</ele>
        <time>2026-08-29T10:56:48Z</time>
      </trkpt>
      <trkpt lat="60.248322626575828" lon="30.488610612228513">
        <ele>99.629999999999995</ele>
        <time>2026-08-29T10:57:05Z</time>
      </trkpt>
      <trkpt lat="60.2483413182199" lon="30.488475244492292">
        <ele>99.629999999999995</ele>
        <time>2026-08-29T10:57:19Z</time>
      </trkpt>
      <trkpt lat="60.24837308563292" lon="30.488346833735704">
        <ele>99.629999999999995</ele>
        <time>2026-08-29T10:57:32Z</time>
      </trkpt>
      <trkpt lat="60.248429412022233" lon="30.48821666277945">
        <ele>98.670000000000002</ele>
        <time>2026-08-29T10:57:44Z</time>
      </trkpt>
      <trkpt lat="60.24846687912941" lon="30.488035446032882">
        <ele>98.189999999999998</ele>
        <time>2026-08-29T10:58:01Z</time>
      </trkpt>
      <trkpt lat="60.248523373156786" lon="30.488164527341723">
        <ele>98.189999999999998</ele>
        <time>2026-08-29T10:58:12Z</time>
      </trkpt>
      <trkpt lat="60.24856117554009" lon="30.488179111853242">
        <ele>98.189999999999998</ele>
        <time>2026-08-29T10:58:48Z</time>
      </trkpt>
      <trkpt lat="60.248561929911375" lon="30.488141812384129">
        <ele>98.189999999999998</ele>
        <time>2026-08-29T10:59:25Z</time>
      </trkpt>
      <trkpt lat="60.248551536351442" lon="30.488072913140059">
        <ele>97.709999999999994</ele>
        <time>2026-08-29T10:59:38Z</time>
      </trkpt>
      <trkpt lat="60.248523373156786" lon="30.488119516521692">
        <ele>97.709999999999994</ele>
        <time>2026-08-29T11:00:08Z</time>
      </trkpt>
      <trkpt lat="60.248536700382829" lon="30.487939976155758">
        <ele>97.709999999999994</ele>
        <time>2026-08-29T11:00:22Z</time>
      </trkpt>
      <trkpt lat="60.248568803071976" lon="30.48773143440485">
        <ele>99.150000000000006</ele>
        <time>2026-08-29T11:00:38Z</time>
      </trkpt>
      <trkpt lat="60.248574838042259" lon="30.487352572381496">
        <ele>99.629999999999995</ele>
        <time>2026-08-29T11:01:03Z</time>
      </trkpt>
      <trkpt lat="60.248606270179152" lon="30.486995419487357">
        <ele>99.150000000000006</ele>
        <time>2026-08-29T11:01:24Z</time>
      </trkpt>
      <trkpt lat="60.248603923246264" lon="30.4869569465518">
        <ele>99.150000000000006</ele>
        <time>2026-08-29T11:01:53Z</time>
      </trkpt>
      <trkpt lat="60.248629152774811" lon="30.486869355663657">
        <ele>99.150000000000006</ele>
        <time>2026-08-29T11:02:33Z</time>
      </trkpt>
      <trkpt lat="60.248650358989835" lon="30.486457636579871">
        <ele>96.269999999999996</ele>
        <time>2026-08-29T11:02:58Z</time>
      </trkpt>
      <trkpt lat="60.248696291819215" lon="30.486203832551837">
        <ele>92.900000000000006</ele>
        <time>2026-08-29T11:03:13Z</time>
      </trkpt>
      <trkpt lat="60.248702494427562" lon="30.485873753204942">
        <ele>90.5</ele>
        <time>2026-08-29T11:03:34Z</time>
      </trkpt>
      <trkpt lat="60.248684389516711" lon="30.485643418505788">
        <ele>90.019999999999996</ele>
        <time>2026-08-29T11:03:53Z</time>
      </trkpt>
      <trkpt lat="60.248750019818544" lon="30.485448455438018">
        <ele>89.060000000000002</ele>
        <time>2026-08-29T11:04:13Z</time>
      </trkpt>
      <trkpt lat="60.24869411252439" lon="30.485301939770579">
        <ele>90.5</ele>
        <time>2026-08-29T11:04:31Z</time>
      </trkpt>
      <trkpt lat="60.248711127787828" lon="30.48501854762435">
        <ele>91.459999999999994</ele>
        <time>2026-08-29T11:04:49Z</time>
      </trkpt>
      <trkpt lat="60.248636612668633" lon="30.48471269197762">
        <ele>92.900000000000006</ele>
        <time>2026-08-29T11:05:08Z</time>
      </trkpt>
      <trkpt lat="60.248580370098352" lon="30.48430809751153">
        <ele>93.390000000000001</ele>
        <time>2026-08-29T11:05:43Z</time>
      </trkpt>
      <trkpt lat="60.248510465025902" lon="30.484290746971965">
        <ele>93.390000000000001</ele>
        <time>2026-08-29T11:06:36Z</time>
      </trkpt>
      <trkpt lat="60.248534772545099" lon="30.484282281249762">
        <ele>93.390000000000001</ele>
        <time>2026-08-29T11:07:47Z</time>
      </trkpt>
      <trkpt lat="60.248536029830575" lon="30.484274318441749">
        <ele>93.390000000000001</ele>
        <time>2026-08-29T11:08:22Z</time>
      </trkpt>
      <trkpt lat="60.248507615178823" lon="30.484312372282147">
        <ele>93.390000000000001</ele>
        <time>2026-08-29T11:09:02Z</time>
      </trkpt>
      <trkpt lat="60.248466711491346" lon="30.484314635396004">
        <ele>93.870000000000005</ele>
        <time>2026-08-29T11:09:16Z</time>
      </trkpt>
      <trkpt lat="60.248426226899028" lon="30.48429443500936">
        <ele>93.870000000000005</ele>
        <time>2026-08-29T11:09:24Z</time>
      </trkpt>
      <trkpt lat="60.248292619362473" lon="30.484232241287827">
        <ele>94.829999999999998</ele>
        <time>2026-08-29T11:09:47Z</time>
      </trkpt>
      <trkpt lat="60.248208213597536" lon="30.484006935730577">
        <ele>95.310000000000002</ele>
        <time>2026-08-29T11:10:07Z</time>
      </trkpt>
      <trkpt lat="60.248081060126424" lon="30.483886655420065">
        <ele>95.310000000000002</ele>
        <time>2026-08-29T11:10:25Z</time>
      </trkpt>
      <trkpt lat="60.247939489781857" lon="30.484020262956619">
        <ele>95.310000000000002</ele>
        <time>2026-08-29T11:10:46Z</time>
      </trkpt>
      <trkpt lat="60.247901435941458" lon="30.484004756435752">
        <ele>95.310000000000002</ele>
        <time>2026-08-29T11:11:22Z</time>
      </trkpt>
      <trkpt lat="60.247923396527767" lon="30.484191505238414">
        <ele>95.310000000000002</ele>
        <time>2026-08-29T11:11:43Z</time>
      </trkpt>
      <trkpt lat="60.247939238324761" lon="30.484460145235062">
        <ele>93.870000000000005</ele>
        <time>2026-08-29T11:12:03Z</time>
      </trkpt>
      <trkpt lat="60.247912835329771" lon="30.484569361433387">
        <ele>93.870000000000005</ele>
        <time>2026-08-29T11:12:11Z</time>
      </trkpt>
      <trkpt lat="60.247864723205566" lon="30.484886281192303">
        <ele>92.900000000000006</ele>
        <time>2026-08-29T11:12:28Z</time>
      </trkpt>
      <trkpt lat="60.247920546680689" lon="30.485075544565916">
        <ele>91.939999999999998</ele>
        <time>2026-08-29T11:12:41Z</time>
      </trkpt>
      <trkpt lat="60.247992128133774" lon="30.485265394672751">
        <ele>90.980000000000004</ele>
        <time>2026-08-29T11:12:54Z</time>
      </trkpt>
      <trkpt lat="60.247980393469334" lon="30.485791526734829">
        <ele>90.980000000000004</ele>
        <time>2026-08-29T11:13:25Z</time>
      </trkpt>
      <trkpt lat="60.247974274680018" lon="30.4861453268677">
        <ele>92.900000000000006</ele>
        <time>2026-08-29T11:13:55Z</time>
      </trkpt>
      <trkpt lat="60.247978214174509" lon="30.486412039026618">
        <ele>92.420000000000002</ele>
        <time>2026-08-29T11:14:13Z</time>
      </trkpt>
      <trkpt lat="60.247894143685699" lon="30.486629465594888">
        <ele>93.390000000000001</ele>
        <time>2026-08-29T11:14:36Z</time>
      </trkpt>
      <trkpt lat="60.24787126109004" lon="30.486736837774515">
        <ele>95.790000000000006</ele>
        <time>2026-08-29T11:14:58Z</time>
      </trkpt>
      <trkpt lat="60.247779982164502" lon="30.486867176368833">
        <ele>98.670000000000002</ele>
        <time>2026-08-29T11:15:21Z</time>
      </trkpt>
      <trkpt lat="60.247785849496722" lon="30.487008579075336">
        <ele>100.59999999999999</ele>
        <time>2026-08-29T11:15:45Z</time>
      </trkpt>
      <trkpt lat="60.247809067368507" lon="30.487042861059308">
        <ele>100.59999999999999</ele>
        <time>2026-08-29T11:16:12Z</time>
      </trkpt>
      <trkpt lat="60.247770259156823" lon="30.487060798332095">
        <ele>101.08</ele>
        <time>2026-08-29T11:16:35Z</time>
      </trkpt>
      <trkpt lat="60.247701443731785" lon="30.487145623192191">
        <ele>102.04000000000001</ele>
        <time>2026-08-29T11:16:46Z</time>
      </trkpt>
      <trkpt lat="60.247610164806247" lon="30.487276632338762">
        <ele>102.04000000000001</ele>
        <time>2026-08-29T11:17:11Z</time>
      </trkpt>
      <trkpt lat="60.247655175626278" lon="30.487254420295358">
        <ele>102.04000000000001</ele>
        <time>2026-08-29T11:17:36Z</time>
      </trkpt>
      <trkpt lat="60.247747376561165" lon="30.487231537699699">
        <ele>102.04000000000001</ele>
        <time>2026-08-29T11:18:00Z</time>
      </trkpt>
      <trkpt lat="60.247825076803565" lon="30.487165404483676">
        <ele>102.04000000000001</ele>
        <time>2026-08-29T11:18:22Z</time>
      </trkpt>
      <trkpt lat="60.247785765677691" lon="30.487062055617571">
        <ele>101.56</ele>
        <time>2026-08-29T11:18:47Z</time>
      </trkpt>
      <trkpt lat="60.247705550864339" lon="30.487110838294029">
        <ele>102.52</ele>
        <time>2026-08-29T11:19:01Z</time>
      </trkpt>
      <trkpt lat="60.247645536437631" lon="30.487261461094022">
        <ele>102.52</ele>
        <time>2026-08-29T11:19:08Z</time>
      </trkpt>
      <trkpt lat="60.247566662728786" lon="30.487577542662621">
        <ele>101.08</ele>
        <time>2026-08-29T11:19:24Z</time>
      </trkpt>
      <trkpt lat="60.247507570311427" lon="30.487760687246919">
        <ele>97.709999999999994</ele>
        <time>2026-08-29T11:19:36Z</time>
      </trkpt>
      <trkpt lat="60.247480999678373" lon="30.487788934260607">
        <ele>93.870000000000005</ele>
        <time>2026-08-29T11:19:40Z</time>
      </trkpt>
      <trkpt lat="60.247448058798909" lon="30.487916423007846">
        <ele>91.939999999999998</ele>
        <time>2026-08-29T11:19:52Z</time>
      </trkpt>
      <trkpt lat="60.247510420158505" lon="30.488055478781462">
        <ele>93.870000000000005</ele>
        <time>2026-08-29T11:20:07Z</time>
      </trkpt>
      <trkpt lat="60.247542690485716" lon="30.48813016153872">
        <ele>95.310000000000002</ele>
        <time>2026-08-29T11:20:14Z</time>
      </trkpt>
      <trkpt lat="60.247612930834293" lon="30.488185901194811">
        <ele>97.709999999999994</ele>
        <time>2026-08-29T11:20:31Z</time>
      </trkpt>
      <trkpt lat="60.247635813429952" lon="30.488223871216178">
        <ele>98.189999999999998</ele>
        <time>2026-08-29T11:20:36Z</time>
      </trkpt>
      <trkpt lat="60.247738994657993" lon="30.488270223140717">
        <ele>101.08</ele>
        <time>2026-08-29T11:20:53Z</time>
      </trkpt>
      <trkpt lat="60.247826417908072" lon="30.488414224237204">
        <ele>102.04000000000001</ele>
        <time>2026-08-29T11:21:06Z</time>
      </trkpt>
      <trkpt lat="60.247851898893714" lon="30.488619832322001">
        <ele>103</ele>
        <time>2026-08-29T11:21:18Z</time>
      </trkpt>
      <trkpt lat="60.247856928035617" lon="30.488816304132342">
        <ele>103.48</ele>
        <time>2026-08-29T11:21:31Z</time>
      </trkpt>
      <trkpt lat="60.247866734862328" lon="30.488873803988099">
        <ele>103.48</ele>
        <time>2026-08-29T11:22:24Z</time>
      </trkpt>
      <trkpt lat="60.247780149802566" lon="30.488938931375742">
        <ele>103.48</ele>
        <time>2026-08-29T11:22:34Z</time>
      </trkpt>
      <trkpt lat="60.24772172793746" lon="30.489046219736338">
        <ele>102.04000000000001</ele>
        <time>2026-08-29T11:22:42Z</time>
      </trkpt>
      <trkpt lat="60.247618043795228" lon="30.489177731797099">
        <ele>98.189999999999998</ele>
        <time>2026-08-29T11:22:57Z</time>
      </trkpt>
      <trkpt lat="60.247598178684711" lon="30.489227352663875">
        <ele>94.829999999999998</ele>
        <time>2026-08-29T11:23:01Z</time>
      </trkpt>
      <trkpt lat="60.247492315247655" lon="30.489507308229804">
        <ele>93.390000000000001</ele>
        <time>2026-08-29T11:23:31Z</time>
      </trkpt>
      <trkpt lat="60.247654085978866" lon="30.489722555503249">
        <ele>93.390000000000001</ele>
        <time>2026-08-29T11:23:53Z</time>
      </trkpt>
      <trkpt lat="60.247651403769851" lon="30.490023046731949">
        <ele>93.870000000000005</ele>
        <time>2026-08-29T11:24:17Z</time>
      </trkpt>
      <trkpt lat="60.247649643570185" lon="30.490042828023434">
        <ele>92.420000000000002</ele>
        <time>2026-08-29T11:24:19Z</time>
      </trkpt>
      <trkpt lat="60.247663389891386" lon="30.490315156057477">
        <ele>90.980000000000004</ele>
        <time>2026-08-29T11:24:36Z</time>
      </trkpt>
      <trkpt lat="60.247700437903404" lon="30.490677924826741">
        <ele>88.099999999999994</ele>
        <time>2026-08-29T11:25:03Z</time>
      </trkpt>
      <trkpt lat="60.247709741815925" lon="30.491002220660448">
        <ele>86.180000000000007</ele>
        <time>2026-08-29T11:25:19Z</time>
      </trkpt>
      <trkpt lat="60.247728265821934" lon="30.491135576739907">
        <ele>85.209999999999994</ele>
        <time>2026-08-29T11:25:35Z</time>
      </trkpt>
      <trkpt lat="60.247740000486374" lon="30.49129256978631">
        <ele>85.209999999999994</ele>
        <time>2026-08-29T11:25:50Z</time>
      </trkpt>
      <trkpt lat="60.247711082920432" lon="30.491486275568604">
        <ele>85.209999999999994</ele>
        <time>2026-08-29T11:26:09Z</time>
      </trkpt>
      <trkpt lat="60.24776129052043" lon="30.491650812327862">
        <ele>85.209999999999994</ele>
        <time>2026-08-29T11:26:34Z</time>
      </trkpt>
      <trkpt lat="60.247800350189209" lon="30.491799088194966">
        <ele>85.209999999999994</ele>
        <time>2026-08-29T11:26:53Z</time>
      </trkpt>
      <trkpt lat="60.247753746807575" lon="30.492030261084437">
        <ele>85.209999999999994</ele>
        <time>2026-08-29T11:27:14Z</time>
      </trkpt>
      <trkpt lat="60.247747711837292" lon="30.492279035970569">
        <ele>85.209999999999994</ele>
        <time>2026-08-29T11:27:32Z</time>
      </trkpt>
      <trkpt lat="60.247770762071013" lon="30.492224469780922">
        <ele>85.209999999999994</ele>
        <time>2026-08-29T11:28:17Z</time>
      </trkpt>
      <trkpt lat="60.247745113447309" lon="30.492277694866061">
        <ele>85.209999999999994</ele>
        <time>2026-08-29T11:28:58Z</time>
      </trkpt>
      <trkpt lat="60.247759949415922" lon="30.492327148094773">
        <ele>85.209999999999994</ele>
        <time>2026-08-29T11:29:27Z</time>
      </trkpt>
      <trkpt lat="60.247662635520101" lon="30.492347851395607">
        <ele>85.209999999999994</ele>
        <time>2026-08-29T11:30:02Z</time>
      </trkpt>
      <trkpt lat="60.247511342167854" lon="30.492106033489108">
        <ele>85.209999999999994</ele>
        <time>2026-08-29T11:30:31Z</time>
      </trkpt>
      <trkpt lat="60.247346553951502" lon="30.492094717919827">
        <ele>84.730000000000004</ele>
        <time>2026-08-29T11:30:52Z</time>
      </trkpt>
      <trkpt lat="60.247257202863693" lon="30.491852145642042">
        <ele>84.730000000000004</ele>
        <time>2026-08-29T11:31:20Z</time>
      </trkpt>
      <trkpt lat="60.247179167345166" lon="30.492091281339526">
        <ele>84.730000000000004</ele>
        <time>2026-08-29T11:31:46Z</time>
      </trkpt>
      <trkpt lat="60.247166091576219" lon="30.492058843374252">
        <ele>84.730000000000004</ele>
        <time>2026-08-29T11:32:22Z</time>
      </trkpt>
      <trkpt lat="60.247180005535483" lon="30.492011569440365">
        <ele>84.730000000000004</ele>
        <time>2026-08-29T11:33:01Z</time>
      </trkpt>
      <trkpt lat="60.247170114889741" lon="30.491929175332189">
        <ele>84.730000000000004</ele>
        <time>2026-08-29T11:33:31Z</time>
      </trkpt>
      <trkpt lat="60.247189896181226" lon="30.491725662723184">
        <ele>84.730000000000004</ele>
        <time>2026-08-29T11:33:53Z</time>
      </trkpt>
      <trkpt lat="60.247160727158189" lon="30.491485185921192">
        <ele>84.730000000000004</ele>
        <time>2026-08-29T11:34:14Z</time>
      </trkpt>
      <trkpt lat="60.247165001928806" lon="30.491477306932211">
        <ele>84.730000000000004</ele>
        <time>2026-08-29T11:34:15Z</time>
      </trkpt>
      <trkpt lat="60.247139353305101" lon="30.49096466973424">
        <ele>85.689999999999998</ele>
        <time>2026-08-29T11:34:45Z</time>
      </trkpt>
      <trkpt lat="60.247064922004938" lon="30.490772891789675">
        <ele>86.180000000000007</ele>
        <time>2026-08-29T11:35:05Z</time>
      </trkpt>
      <trkpt lat="60.246960399672389" lon="30.490658394992352">
        <ele>86.180000000000007</ele>
        <time>2026-08-29T11:35:25Z</time>
      </trkpt>
      <trkpt lat="60.246967608109117" lon="30.490344576537609">
        <ele>86.180000000000007</ele>
        <time>2026-08-29T11:35:42Z</time>
      </trkpt>
      <trkpt lat="60.246905917301774" lon="30.490215662866831">
        <ele>86.180000000000007</ele>
        <time>2026-08-29T11:36:02Z</time>
      </trkpt>
      <trkpt lat="60.246782284229994" lon="30.490000918507576">
        <ele>86.659999999999997</ele>
        <time>2026-08-29T11:36:21Z</time>
      </trkpt>
      <trkpt lat="60.246749594807625" lon="30.489716520532966">
        <ele>87.140000000000001</ele>
        <time>2026-08-29T11:36:43Z</time>
      </trkpt>
      <trkpt lat="60.246754456311464" lon="30.489607891067863">
        <ele>89.060000000000002</ele>
        <time>2026-08-29T11:37:06Z</time>
      </trkpt>
      <trkpt lat="60.246803825721145" lon="30.489434385672212">
        <ele>90.980000000000004</ele>
        <time>2026-08-29T11:37:25Z</time>
      </trkpt>
      <trkpt lat="60.246863672509789" lon="30.489185862243176">
        <ele>93.390000000000001</ele>
        <time>2026-08-29T11:37:43Z</time>
      </trkpt>
      <trkpt lat="60.246843723580241" lon="30.489043369889259">
        <ele>94.349999999999994</ele>
        <time>2026-08-29T11:38:02Z</time>
      </trkpt>
      <trkpt lat="60.246831150725484" lon="30.48903071321547">
        <ele>94.349999999999994</ele>
        <time>2026-08-29T11:38:33Z</time>
      </trkpt>
      <trkpt lat="60.246801814064384" lon="30.488975057378411">
        <ele>94.829999999999998</ele>
        <time>2026-08-29T11:39:06Z</time>
      </trkpt>
      <trkpt lat="60.246788738295436" lon="30.488917389884591">
        <ele>94.829999999999998</ele>
        <time>2026-08-29T11:39:27Z</time>
      </trkpt>
      <trkpt lat="60.246856715530157" lon="30.488816555589437">
        <ele>95.310000000000002</ele>
        <time>2026-08-29T11:39:39Z</time>
      </trkpt>
      <trkpt lat="60.246937852352858" lon="30.488719241693616">
        <ele>95.310000000000002</ele>
        <time>2026-08-29T11:39:53Z</time>
      </trkpt>
      <trkpt lat="60.247001722455025" lon="30.488637937232852">
        <ele>94.349999999999994</ele>
        <time>2026-08-29T11:40:07Z</time>
      </trkpt>
      <trkpt lat="60.246967189013958" lon="30.488528804853559">
        <ele>93.390000000000001</ele>
        <time>2026-08-29T11:40:17Z</time>
      </trkpt>
      <trkpt lat="60.247025275602937" lon="30.48844532109797">
        <ele>92.900000000000006</ele>
        <time>2026-08-29T11:40:28Z</time>
      </trkpt>
      <trkpt lat="60.247059389948845" lon="30.488275168463588">
        <ele>92.900000000000006</ele>
        <time>2026-08-29T11:40:40Z</time>
      </trkpt>
      <trkpt lat="60.247110854834318" lon="30.488027231767774">
        <ele>92.900000000000006</ele>
        <time>2026-08-29T11:40:57Z</time>
      </trkpt>
      <trkpt lat="60.247124182060361" lon="30.487730680033565">
        <ele>92.900000000000006</ele>
        <time>2026-08-29T11:41:19Z</time>
      </trkpt>
      <trkpt lat="60.247017815709114" lon="30.487680472433567">
        <ele>92.900000000000006</ele>
        <time>2026-08-29T11:41:38Z</time>
      </trkpt>
      <trkpt lat="60.247014798223972" lon="30.487439325079322">
        <ele>93.870000000000005</ele>
        <time>2026-08-29T11:42:00Z</time>
      </trkpt>
      <trkpt lat="60.246983869001269" lon="30.487397415563464">
        <ele>96.269999999999996</ele>
        <time>2026-08-29T11:42:19Z</time>
      </trkpt>
      <trkpt lat="60.246930895373225" lon="30.48712994903326">
        <ele>98.189999999999998</ele>
        <time>2026-08-29T11:42:44Z</time>
      </trkpt>
      <trkpt lat="60.246841795742512" lon="30.48698871396482">
        <ele>99.629999999999995</ele>
        <time>2026-08-29T11:43:02Z</time>
      </trkpt>
      <trkpt lat="60.246811537072062" lon="30.486839096993208">
        <ele>101.08</ele>
        <time>2026-08-29T11:43:19Z</time>
      </trkpt>
      <trkpt lat="60.246826959773898" lon="30.486654108390212">
        <ele>102.04000000000001</ele>
        <time>2026-08-29T11:43:35Z</time>
      </trkpt>
      <trkpt lat="60.246820421889424" lon="30.486653186380863">
        <ele>103</ele>
        <time>2026-08-29T11:44:19Z</time>
      </trkpt>
      <trkpt lat="60.24685638025403" lon="30.486674224957824">
        <ele>103</ele>
        <time>2026-08-29T11:44:49Z</time>
      </trkpt>
      <trkpt lat="60.246794437989593" lon="30.48648496158421">
        <ele>103.95999999999999</ele>
        <time>2026-08-29T11:45:31Z</time>
      </trkpt>
      <trkpt lat="60.24673031643033" lon="30.486301816999912">
        <ele>105.40000000000001</ele>
        <time>2026-08-29T11:45:50Z</time>
      </trkpt>
      <trkpt lat="60.246614059433341" lon="30.486125964671373">
        <ele>103.95999999999999</ele>
        <time>2026-08-29T11:46:19Z</time>
      </trkpt>
      <trkpt lat="60.246534179896116" lon="30.485893031582236">
        <ele>101.08</ele>
        <time>2026-08-29T11:46:43Z</time>
      </trkpt>
      <trkpt lat="60.246600899845362" lon="30.485702678561211">
        <ele>99.150000000000006</ele>
        <time>2026-08-29T11:47:00Z</time>
      </trkpt>
      <trkpt lat="60.246689328923821" lon="30.485617434605956">
        <ele>97.709999999999994</ele>
        <time>2026-08-29T11:47:15Z</time>
      </trkpt>
      <trkpt lat="60.246832994744182" lon="30.4853630438447">
        <ele>95.310000000000002</ele>
        <time>2026-08-29T11:47:37Z</time>
      </trkpt>
      <trkpt lat="60.24690130725503" lon="30.485181072726846">
        <ele>95.310000000000002</ele>
        <time>2026-08-29T11:47:52Z</time>
      </trkpt>
      <trkpt lat="60.246865935623646" lon="30.484708165749907">
        <ele>96.269999999999996</ele>
        <time>2026-08-29T11:48:24Z</time>
      </trkpt>
      <trkpt lat="60.246833078563213" lon="30.484531559050083">
        <ele>96.75</ele>
        <time>2026-08-29T11:48:45Z</time>
      </trkpt>
      <trkpt lat="60.246751019731164" lon="30.484442627057433">
        <ele>97.230000000000004</ele>
        <time>2026-08-29T11:49:00Z</time>
      </trkpt>
      <trkpt lat="60.246712462976575" lon="30.484340535476804">
        <ele>97.230000000000004</ele>
        <time>2026-08-29T11:49:19Z</time>
      </trkpt>
      <trkpt lat="60.246878173202276" lon="30.484180105850101">
        <ele>97.230000000000004</ele>
        <time>2026-08-29T11:49:36Z</time>
      </trkpt>
      <trkpt lat="60.247048158198595" lon="30.484042139723897">
        <ele>95.310000000000002</ele>
        <time>2026-08-29T11:49:53Z</time>
      </trkpt>
      <trkpt lat="60.24705721065402" lon="30.483942897990346">
        <ele>94.829999999999998</ele>
        <time>2026-08-29T11:50:18Z</time>
      </trkpt>
      <trkpt lat="60.247029382735491" lon="30.483857486397028">
        <ele>94.829999999999998</ele>
        <time>2026-08-29T11:50:54Z</time>
      </trkpt>
      <trkpt lat="60.247030556201935" lon="30.483847595751286">
        <ele>94.829999999999998</ele>
        <time>2026-08-29T11:51:31Z</time>
      </trkpt>
      <trkpt lat="60.247004739940166" lon="30.48380434513092">
        <ele>94.829999999999998</ele>
        <time>2026-08-29T11:52:01Z</time>
      </trkpt>
      <trkpt lat="60.246938522905111" lon="30.483587002381682">
        <ele>96.269999999999996</ele>
        <time>2026-08-29T11:52:30Z</time>
      </trkpt>
      <trkpt lat="60.246868031099439" lon="30.483429590240121">
        <ele>97.230000000000004</ele>
        <time>2026-08-29T11:52:51Z</time>
      </trkpt>
      <trkpt lat="60.246892338618636" lon="30.483233705163002">
        <ele>97.709999999999994</ele>
        <time>2026-08-29T11:53:08Z</time>
      </trkpt>
      <trkpt lat="60.246906839311123" lon="30.483034634962678">
        <ele>98.670000000000002</ele>
        <time>2026-08-29T11:53:26Z</time>
      </trkpt>
      <trkpt lat="60.246868198737502" lon="30.482815699651837">
        <ele>97.709999999999994</ele>
        <time>2026-08-29T11:53:44Z</time>
      </trkpt>
      <trkpt lat="60.246840286999941" lon="30.482562649995089">
        <ele>95.790000000000006</ele>
        <time>2026-08-29T11:54:04Z</time>
      </trkpt>
      <trkpt lat="60.246882699429989" lon="30.48253339715302">
        <ele>94.829999999999998</ele>
        <time>2026-08-29T11:54:28Z</time>
      </trkpt>
      <trkpt lat="60.246945228427649" lon="30.482507580891252">
        <ele>94.829999999999998</ele>
        <time>2026-08-29T11:54:44Z</time>
      </trkpt>
      <trkpt lat="60.247058467939496" lon="30.482515627518296">
        <ele>95.790000000000006</ele>
        <time>2026-08-29T11:55:04Z</time>
      </trkpt>
      <trkpt lat="60.247116219252348" lon="30.482272049412131">
        <ele>93.870000000000005</ele>
        <time>2026-08-29T11:55:22Z</time>
      </trkpt>
      <trkpt lat="60.247032484039664" lon="30.482108518481255">
        <ele>92.420000000000002</ele>
        <time>2026-08-29T11:55:39Z</time>
      </trkpt>
      <trkpt lat="60.247137760743499" lon="30.482073482125998">
        <ele>91.459999999999994</ele>
        <time>2026-08-29T11:56:00Z</time>
      </trkpt>
      <trkpt lat="60.247273715212941" lon="30.482049426063895">
        <ele>91.459999999999994</ele>
        <time>2026-08-29T11:56:15Z</time>
      </trkpt>
      <trkpt lat="60.247273715212941" lon="30.481899725273252">
        <ele>90.980000000000004</ele>
        <time>2026-08-29T11:56:42Z</time>
      </trkpt>
      <trkpt lat="60.247170366346836" lon="30.482000140473247">
        <ele>90.5</ele>
        <time>2026-08-29T11:56:57Z</time>
      </trkpt>
      <trkpt lat="60.247080596163869" lon="30.481952447444201">
        <ele>90.5</ele>
        <time>2026-08-29T11:57:09Z</time>
      </trkpt>
      <trkpt lat="60.246992334723473" lon="30.48198027536273">
        <ele>90.019999999999996</ele>
        <time>2026-08-29T11:57:25Z</time>
      </trkpt>
      <trkpt lat="60.246957633644342" lon="30.481825629249215">
        <ele>89.540000000000006</ele>
        <time>2026-08-29T11:57:36Z</time>
      </trkpt>
      <trkpt lat="60.246967524290085" lon="30.481668887659907">
        <ele>89.060000000000002</ele>
        <time>2026-08-29T11:57:48Z</time>
      </trkpt>
      <trkpt lat="60.246950425207615" lon="30.48148138448596">
        <ele>88.099999999999994</ele>
        <time>2026-08-29T11:58:04Z</time>
      </trkpt>
      <trkpt lat="60.24691010825336" lon="30.481323301792145">
        <ele>88.099999999999994</ele>
        <time>2026-08-29T11:58:18Z</time>
      </trkpt>
      <trkpt lat="60.246941037476063" lon="30.481135128065944">
        <ele>88.099999999999994</ele>
        <time>2026-08-29T11:58:31Z</time>
      </trkpt>
      <trkpt lat="60.246966267004609" lon="30.480980733409524">
        <ele>88.099999999999994</ele>
        <time>2026-08-29T11:58:44Z</time>
      </trkpt>
      <trkpt lat="60.246963333338499" lon="30.480851819738746">
        <ele>88.099999999999994</ele>
        <time>2026-08-29T11:58:54Z</time>
      </trkpt>
      <trkpt lat="60.246981522068381" lon="30.480735981836915">
        <ele>88.099999999999994</ele>
        <time>2026-08-29T11:59:08Z</time>
      </trkpt>
      <trkpt lat="60.247037429362535" lon="30.480565074831247">
        <ele>88.099999999999994</ele>
        <time>2026-08-29T11:59:21Z</time>
      </trkpt>
      <trkpt lat="60.247079506516457" lon="30.480432137846947">
        <ele>88.099999999999994</ele>
        <time>2026-08-29T11:59:37Z</time>
      </trkpt>
      <trkpt lat="60.24707674048841" lon="30.480413613840938">
        <ele>88.099999999999994</ele>
        <time>2026-08-29T12:00:02Z</time>
      </trkpt>
      <trkpt lat="60.247046397998929" lon="30.480433143675327">
        <ele>88.099999999999994</ele>
        <time>2026-08-29T12:00:41Z</time>
      </trkpt>
      <trkpt lat="60.247052935883403" lon="30.480232816189528">
        <ele>88.099999999999994</ele>
        <time>2026-08-29T12:01:06Z</time>
      </trkpt>
      <trkpt lat="60.247056037187576" lon="30.480090994387865">
        <ele>88.099999999999994</ele>
        <time>2026-08-29T12:01:19Z</time>
      </trkpt>
      <trkpt lat="60.247060228139162" lon="30.479934420436621">
        <ele>89.540000000000006</ele>
        <time>2026-08-29T12:01:36Z</time>
      </trkpt>
      <trkpt lat="60.247063664719462" lon="30.479737110435963">
        <ele>90.980000000000004</ele>
        <time>2026-08-29T12:01:52Z</time>
      </trkpt>
      <trkpt lat="60.247091073542833" lon="30.479503506794572">
        <ele>91.459999999999994</ele>
        <time>2026-08-29T12:02:09Z</time>
      </trkpt>
      <trkpt lat="60.247136754915118" lon="30.479285242035985">
        <ele>91.939999999999998</ele>
        <time>2026-08-29T12:02:26Z</time>
      </trkpt>
      <trkpt lat="60.247184028849006" lon="30.479091284796596">
        <ele>92.420000000000002</ele>
        <time>2026-08-29T12:02:40Z</time>
      </trkpt>
      <trkpt lat="60.24719936773181" lon="30.479099247604609">
        <ele>92.420000000000002</ele>
        <time>2026-08-29T12:02:42Z</time>
      </trkpt>
      <trkpt lat="60.24722526781261" lon="30.479094050824642">
        <ele>92.420000000000002</ele>
        <time>2026-08-29T12:02:44Z</time>
      </trkpt>
      <trkpt lat="60.247207414358854" lon="30.479067312553525">
        <ele>92.420000000000002</ele>
        <time>2026-08-29T12:03:03Z</time>
      </trkpt>
      <trkpt lat="60.247257119044662" lon="30.479153813794255">
        <ele>92.420000000000002</ele>
        <time>2026-08-29T12:03:26Z</time>
      </trkpt>
      <trkpt lat="60.247212527319789" lon="30.47911643050611">
        <ele>92.420000000000002</ele>
        <time>2026-08-29T12:03:35Z</time>
      </trkpt>
      <trkpt lat="60.247161062434316" lon="30.479058008641005">
        <ele>92.900000000000006</ele>
        <time>2026-08-29T12:04:05Z</time>
      </trkpt>
      <trkpt lat="60.247217891737819" lon="30.478961449116468">
        <ele>92.900000000000006</ele>
        <time>2026-08-29T12:04:20Z</time>
      </trkpt>
      <trkpt lat="60.247260890901089" lon="30.478834882378578">
        <ele>92.900000000000006</ele>
        <time>2026-08-29T12:04:32Z</time>
      </trkpt>
      <trkpt lat="60.247216382995248" lon="30.478688785806298">
        <ele>92.900000000000006</ele>
        <time>2026-08-29T12:04:41Z</time>
      </trkpt>
      <trkpt lat="60.247158212587237" lon="30.478550652042031">
        <ele>92.900000000000006</ele>
        <time>2026-08-29T12:04:50Z</time>
      </trkpt>
      <trkpt lat="60.247071040794253" lon="30.478407070040703">
        <ele>92.900000000000006</ele>
        <time>2026-08-29T12:05:06Z</time>
      </trkpt>
      <trkpt lat="60.247029298916459" lon="30.478289304301143">
        <ele>93.390000000000001</ele>
        <time>2026-08-29T12:05:20Z</time>
      </trkpt>
      <trkpt lat="60.246926955878735" lon="30.478229289874434">
        <ele>96.269999999999996</ele>
        <time>2026-08-29T12:05:39Z</time>
      </trkpt>
      <trkpt lat="60.246928464621305" lon="30.478059640154243">
        <ele>99.629999999999995</ele>
        <time>2026-08-29T12:05:59Z</time>
      </trkpt>
      <trkpt lat="60.246998872607946" lon="30.477908682078123">
        <ele>100.59999999999999</ele>
        <time>2026-08-29T12:06:15Z</time>
      </trkpt>
      <trkpt lat="60.247026784345508" lon="30.477713970467448">
        <ele>101.56</ele>
        <time>2026-08-29T12:06:29Z</time>
      </trkpt>
      <trkpt lat="60.246969703584909" lon="30.477583380416036">
        <ele>103.48</ele>
        <time>2026-08-29T12:06:44Z</time>
      </trkpt>
      <trkpt lat="60.246910778805614" lon="30.477562509477139">
        <ele>103.95999999999999</ele>
        <time>2026-08-29T12:06:55Z</time>
      </trkpt>
      <trkpt lat="60.246882364153862" lon="30.477602994069457">
        <ele>104.92</ele>
        <time>2026-08-29T12:07:09Z</time>
      </trkpt>
      <trkpt lat="60.246877418830991" lon="30.477551445364952">
        <ele>105.40000000000001</ele>
        <time>2026-08-29T12:07:52Z</time>
      </trkpt>
      <trkpt lat="60.246847327798605" lon="30.477584721520543">
        <ele>104.92</ele>
        <time>2026-08-29T12:08:53Z</time>
      </trkpt>
      <trkpt lat="60.24680458009243" lon="30.477665020152926">
        <ele>104.92</ele>
        <time>2026-08-29T12:09:05Z</time>
      </trkpt>
      <trkpt lat="60.246696621179581" lon="30.477674826979637">
        <ele>104.92</ele>
        <time>2026-08-29T12:09:17Z</time>
      </trkpt>
      <trkpt lat="60.246637612581253" lon="30.477712713181973">
        <ele>105.40000000000001</ele>
        <time>2026-08-29T12:09:31Z</time>
      </trkpt>
      <trkpt lat="60.246669463813305" lon="30.477776415646076">
        <ele>105.40000000000001</ele>
        <time>2026-08-29T12:10:14Z</time>
      </trkpt>
      <trkpt lat="60.246627051383257" lon="30.477817403152585">
        <ele>105.40000000000001</ele>
        <time>2026-08-29T12:10:35Z</time>
      </trkpt>
      <trkpt lat="60.246573910117149" lon="30.477881021797657">
        <ele>104.92</ele>
        <time>2026-08-29T12:10:47Z</time>
      </trkpt>
      <trkpt lat="60.246513728052378" lon="30.477962912991643">
        <ele>104.92</ele>
        <time>2026-08-29T12:11:03Z</time>
      </trkpt>
      <trkpt lat="60.246532587334514" lon="30.47820758074522">
        <ele>104.92</ele>
        <time>2026-08-29T12:11:22Z</time>
      </trkpt>
      <trkpt lat="60.246503502130508" lon="30.478382175788283">
        <ele>104.92</ele>
        <time>2026-08-29T12:11:34Z</time>
      </trkpt>
      <trkpt lat="60.246486319229007" lon="30.478603877127171">
        <ele>103.48</ele>
        <time>2026-08-29T12:11:50Z</time>
      </trkpt>
      <trkpt lat="60.246478524059057" lon="30.478785010054708">
        <ele>102.52</ele>
        <time>2026-08-29T12:12:05Z</time>
      </trkpt>
      <trkpt lat="60.246498137712479" lon="30.47892632894218">
        <ele>98.670000000000002</ele>
        <time>2026-08-29T12:12:18Z</time>
      </trkpt>
      <trkpt lat="60.246491180732846" lon="30.478962790220976">
        <ele>94.829999999999998</ele>
        <time>2026-08-29T12:12:21Z</time>
      </trkpt>
      <trkpt lat="60.246484139934182" lon="30.47916135750711">
        <ele>96.75</ele>
        <time>2026-08-29T12:12:33Z</time>
      </trkpt>
      <trkpt lat="60.246445164084435" lon="30.479223048314452">
        <ele>93.390000000000001</ele>
        <time>2026-08-29T12:12:38Z</time>
      </trkpt>
      <trkpt lat="60.24644298478961" lon="30.479227658361197">
        <ele>90.5</ele>
        <time>2026-08-29T12:12:42Z</time>
      </trkpt>
      <trkpt lat="60.246462849900126" lon="30.479352800175548">
        <ele>89.540000000000006</ele>
        <time>2026-08-29T12:12:53Z</time>
      </trkpt>
      <trkpt lat="60.246501406654716" lon="30.479481881484389">
        <ele>90.5</ele>
        <time>2026-08-29T12:13:09Z</time>
      </trkpt>
      <trkpt lat="60.246501658111811" lon="30.479575926437974">
        <ele>90.5</ele>
        <time>2026-08-29T12:13:21Z</time>
      </trkpt>
      <trkpt lat="60.246570808812976" lon="30.479743564501405">
        <ele>90.5</ele>
        <time>2026-08-29T12:13:34Z</time>
      </trkpt>
      <trkpt lat="60.246574748307467" lon="30.479878764599562">
        <ele>90.5</ele>
        <time>2026-08-29T12:13:44Z</time>
      </trkpt>
      <trkpt lat="60.246572652831674" lon="30.479903658851981">
        <ele>90.5</ele>
        <time>2026-08-29T12:13:46Z</time>
      </trkpt>
      <trkpt lat="60.246516410261393" lon="30.480124689638615">
        <ele>90.5</ele>
        <time>2026-08-29T12:14:10Z</time>
      </trkpt>
      <trkpt lat="60.246503837406635" lon="30.480123180896044">
        <ele>89.060000000000002</ele>
        <time>2026-08-29T12:14:12Z</time>
      </trkpt>
      <trkpt lat="60.246446253731847" lon="30.480243545025587">
        <ele>89.060000000000002</ele>
        <time>2026-08-29T12:14:32Z</time>
      </trkpt>
      <trkpt lat="60.246475590392947" lon="30.480519812554121">
        <ele>87.620000000000005</ele>
        <time>2026-08-29T12:15:29Z</time>
      </trkpt>
      <trkpt lat="60.246448935940862" lon="30.480463737621903">
        <ele>87.620000000000005</ele>
        <time>2026-08-29T12:15:55Z</time>
      </trkpt>
      <trkpt lat="60.24635748937726" lon="30.480404729023576">
        <ele>87.620000000000005</ele>
        <time>2026-08-29T12:16:15Z</time>
      </trkpt>
      <trkpt lat="60.246420186012983" lon="30.48032820224762">
        <ele>87.620000000000005</ele>
        <time>2026-08-29T12:16:40Z</time>
      </trkpt>
      <trkpt lat="60.246447175741196" lon="30.480477567762136">
        <ele>87.620000000000005</ele>
        <time>2026-08-29T12:18:01Z</time>
      </trkpt>
      <trkpt lat="60.246432088315487" lon="30.480511095374823">
        <ele>88.099999999999994</ele>
        <time>2026-08-29T12:19:09Z</time>
      </trkpt>
      <trkpt lat="60.246444325894117" lon="30.48049290664494">
        <ele>88.099999999999994</ele>
        <time>2026-08-29T12:19:17Z</time>
      </trkpt>
      <trkpt lat="60.246501993387938" lon="30.48033750616014">
        <ele>88.099999999999994</ele>
        <time>2026-08-29T12:19:47Z</time>
      </trkpt>
      <trkpt lat="60.246495455503464" lon="30.480505647137761">
        <ele>88.099999999999994</ele>
        <time>2026-08-29T12:20:49Z</time>
      </trkpt>
      <trkpt lat="60.24650895036757" lon="30.480435322970152">
        <ele>88.099999999999994</ele>
        <time>2026-08-29T12:21:14Z</time>
      </trkpt>
      <trkpt lat="60.246417503803968" lon="30.480506317690015">
        <ele>88.099999999999994</ele>
        <time>2026-08-29T12:22:03Z</time>
      </trkpt>
      <trkpt lat="60.246415743604302" lon="30.480493577197194">
        <ele>88.099999999999994</ele>
        <time>2026-08-29T12:22:27Z</time>
      </trkpt>
      <trkpt lat="60.246416162699461" lon="30.480424845591187">
        <ele>87.620000000000005</ele>
        <time>2026-08-29T12:22:56Z</time>
      </trkpt>
      <trkpt lat="60.2463951241225" lon="30.480591980740428">
        <ele>87.620000000000005</ele>
        <time>2026-08-29T12:23:15Z</time>
      </trkpt>
      <trkpt lat="60.246390430256724" lon="30.480659371241927">
        <ele>87.620000000000005</ele>
        <time>2026-08-29T12:23:45Z</time>
      </trkpt>
      <trkpt lat="60.246339049190283" lon="30.480610756203532">
        <ele>87.620000000000005</ele>
        <time>2026-08-29T12:24:02Z</time>
      </trkpt>
      <trkpt lat="60.246372409164906" lon="30.48061603680253">
        <ele>87.620000000000005</ele>
        <time>2026-08-29T12:24:14Z</time>
      </trkpt>
      <trkpt lat="60.246379282325506" lon="30.480800354853272">
        <ele>87.140000000000001</ele>
        <time>2026-08-29T12:24:29Z</time>
      </trkpt>
      <trkpt lat="60.246359752491117" lon="30.480862632393837">
        <ele>87.140000000000001</ele>
        <time>2026-08-29T12:24:34Z</time>
      </trkpt>
      <trkpt lat="60.246264953166246" lon="30.481134876608849">
        <ele>87.140000000000001</ele>
        <time>2026-08-29T12:24:52Z</time>
      </trkpt>
      <trkpt lat="60.246294373646379" lon="30.481240823864937">
        <ele>87.140000000000001</ele>
        <time>2026-08-29T12:25:02Z</time>
      </trkpt>
      <trkpt lat="60.246335361152887" lon="30.481402846053243">
        <ele>87.140000000000001</ele>
        <time>2026-08-29T12:25:15Z</time>
      </trkpt>
      <trkpt lat="60.246374756097794" lon="30.481581380590796">
        <ele>87.140000000000001</ele>
        <time>2026-08-29T12:25:31Z</time>
      </trkpt>
      <trkpt lat="60.246411552652717" lon="30.48168707638979">
        <ele>87.140000000000001</ele>
        <time>2026-08-29T12:25:40Z</time>
      </trkpt>
      <trkpt lat="60.246409373357892" lon="30.481918919831514">
        <ele>87.140000000000001</ele>
        <time>2026-08-29T12:25:58Z</time>
      </trkpt>
      <trkpt lat="60.246371906250715" lon="30.48203551210463">
        <ele>87.140000000000001</ele>
        <time>2026-08-29T12:26:13Z</time>
      </trkpt>
      <trkpt lat="60.246405182406306" lon="30.48204330727458">
        <ele>87.140000000000001</ele>
        <time>2026-08-29T12:26:17Z</time>
      </trkpt>
      <trkpt lat="60.246381964534521" lon="30.482105920091271">
        <ele>87.140000000000001</ele>
        <time>2026-08-29T12:26:33Z</time>
      </trkpt>
      <trkpt lat="60.24632521905005" lon="30.482220165431499">
        <ele>87.140000000000001</ele>
        <time>2026-08-29T12:26:46Z</time>
      </trkpt>
      <trkpt lat="60.246319519355893" lon="30.482281856238842">
        <ele>88.579999999999998</ele>
        <time>2026-08-29T12:27:08Z</time>
      </trkpt>
      <trkpt lat="60.246272245422006" lon="30.482318820431828">
        <ele>88.579999999999998</ele>
        <time>2026-08-29T12:27:34Z</time>
      </trkpt>
      <trkpt lat="60.246244417503476" lon="30.482410518452525">
        <ele>88.579999999999998</ele>
        <time>2026-08-29T12:27:43Z</time>
      </trkpt>
      <trkpt lat="60.246255230158567" lon="30.48264479264617">
        <ele>89.540000000000006</ele>
        <time>2026-08-29T12:27:58Z</time>
      </trkpt>
      <trkpt lat="60.246227821335196" lon="30.482848640531301">
        <ele>91.459999999999994</ele>
        <time>2026-08-29T12:28:14Z</time>
      </trkpt>
      <trkpt lat="60.246158251538873" lon="30.48290966078639">
        <ele>93.390000000000001</ele>
        <time>2026-08-29T12:28:27Z</time>
      </trkpt>
      <trkpt lat="60.246114330366254" lon="30.48305332660675">
        <ele>94.349999999999994</ele>
        <time>2026-08-29T12:28:42Z</time>
      </trkpt>
      <trkpt lat="60.246134111657739" lon="30.483140163123608">
        <ele>94.829999999999998</ele>
        <time>2026-08-29T12:28:54Z</time>
      </trkpt>
      <trkpt lat="60.246151378378272" lon="30.483258850872517">
        <ele>94.829999999999998</ele>
        <time>2026-08-29T12:29:07Z</time>
      </trkpt>
      <trkpt lat="60.246129669249058" lon="30.483348034322262">
        <ele>95.310000000000002</ele>
        <time>2026-08-29T12:29:19Z</time>
      </trkpt>
      <trkpt lat="60.246144756674767" lon="30.483498992398381">
        <ele>95.310000000000002</ele>
        <time>2026-08-29T12:29:30Z</time>
      </trkpt>
      <trkpt lat="60.246185660362244" lon="30.48376863822341">
        <ele>95.790000000000006</ele>
        <time>2026-08-29T12:29:45Z</time>
      </trkpt>
      <trkpt lat="60.246175518259406" lon="30.483865616843104">
        <ele>96.269999999999996</ele>
        <time>2026-08-29T12:29:50Z</time>
      </trkpt>
      <trkpt lat="60.246179876849055" lon="30.484059993177652">
        <ele>96.75</ele>
        <time>2026-08-29T12:29:58Z</time>
      </trkpt>
      <trkpt lat="60.24620451964438" lon="30.484213717281818">
        <ele>96.75</ele>
        <time>2026-08-29T12:30:06Z</time>
      </trkpt>
      <trkpt lat="60.246211644262075" lon="30.48445176333189">
        <ele>96.75</ele>
        <time>2026-08-29T12:30:18Z</time>
      </trkpt>
      <trkpt lat="60.246227318421006" lon="30.484502390027046">
        <ele>96.75</ele>
        <time>2026-08-29T12:30:21Z</time>
      </trkpt>
      <trkpt lat="60.246238969266415" lon="30.484647145494819">
        <ele>97.709999999999994</ele>
        <time>2026-08-29T12:30:29Z</time>
      </trkpt>
      <trkpt lat="60.246091531589627" lon="30.484715458005667">
        <ele>98.189999999999998</ele>
        <time>2026-08-29T12:30:45Z</time>
      </trkpt>
      <trkpt lat="60.246017770841718" lon="30.484806066378951">
        <ele>100.11</ele>
        <time>2026-08-29T12:30:56Z</time>
      </trkpt>
      <trkpt lat="60.245925989001989" lon="30.48479525372386">
        <ele>100.11</ele>
        <time>2026-08-29T12:31:09Z</time>
      </trkpt>
      <trkpt lat="60.245891120284796" lon="30.484827356413007">
        <ele>100.59999999999999</ele>
        <time>2026-08-29T12:31:14Z</time>
      </trkpt>
      <trkpt lat="60.245799338445067" lon="30.484869014471769">
        <ele>100.59999999999999</ele>
        <time>2026-08-29T12:31:37Z</time>
      </trkpt>
      <trkpt lat="60.245779473334551" lon="30.484890472143888">
        <ele>101.08</ele>
        <time>2026-08-29T12:32:25Z</time>
      </trkpt>
      <trkpt lat="60.245792046189308" lon="30.484868930652738">
        <ele>100.59999999999999</ele>
        <time>2026-08-29T12:32:56Z</time>
      </trkpt>
      <trkpt lat="60.245767571032047" lon="30.484788632020354">
        <ele>100.59999999999999</ele>
        <time>2026-08-29T12:33:17Z</time>
      </trkpt>
      <trkpt lat="60.245750304311514" lon="30.484884940087795">
        <ele>100.59999999999999</ele>
        <time>2026-08-29T12:33:42Z</time>
      </trkpt>
      <trkpt lat="60.245726415887475" lon="30.485071102157235">
        <ele>100.59999999999999</ele>
        <time>2026-08-29T12:34:00Z</time>
      </trkpt>
      <trkpt lat="60.245649972930551" lon="30.485264556482434">
        <ele>98.189999999999998</ele>
        <time>2026-08-29T12:34:26Z</time>
      </trkpt>
      <trkpt lat="60.245577804744244" lon="30.485482066869736">
        <ele>95.310000000000002</ele>
        <time>2026-08-29T12:34:53Z</time>
      </trkpt>
      <trkpt lat="60.245538325980306" lon="30.485662361606956">
        <ele>92.900000000000006</ele>
        <time>2026-08-29T12:35:10Z</time>
      </trkpt>
      <trkpt lat="60.245530446991324" lon="30.485855648294091">
        <ele>91.939999999999998</ele>
        <time>2026-08-29T12:35:23Z</time>
      </trkpt>
      <trkpt lat="60.245472444221377" lon="30.485935695469379">
        <ele>91.939999999999998</ele>
        <time>2026-08-29T12:35:35Z</time>
      </trkpt>
      <trkpt lat="60.245590209960938" lon="30.485861850902438">
        <ele>91.939999999999998</ele>
        <time>2026-08-29T12:35:48Z</time>
      </trkpt>
      <trkpt lat="60.245597921311855" lon="30.485855396836996">
        <ele>91.939999999999998</ele>
        <time>2026-08-29T12:35:49Z</time>
      </trkpt>
      <trkpt lat="60.245663383975625" lon="30.485827988013625">
        <ele>91.939999999999998</ele>
        <time>2026-08-29T12:36:02Z</time>
      </trkpt>
      <trkpt lat="60.245663216337562" lon="30.485825808718801">
        <ele>92.900000000000006</ele>
        <time>2026-08-29T12:36:23Z</time>
      </trkpt>
      <trkpt lat="60.245680483058095" lon="30.485828826203942">
        <ele>92.900000000000006</ele>
        <time>2026-08-29T12:36:54Z</time>
      </trkpt>
      <trkpt lat="60.245679812505841" lon="30.485839135944843">
        <ele>92.900000000000006</ele>
        <time>2026-08-29T12:37:32Z</time>
      </trkpt>
      <trkpt lat="60.245689200237393" lon="30.485810972750187">
        <ele>92.420000000000002</ele>
        <time>2026-08-29T12:38:13Z</time>
      </trkpt>
      <trkpt lat="60.245680650696158" lon="30.485847517848015">
        <ele>92.900000000000006</ele>
        <time>2026-08-29T12:38:42Z</time>
      </trkpt>
      <trkpt lat="60.245664054527879" lon="30.48586780205369">
        <ele>92.900000000000006</ele>
        <time>2026-08-29T12:39:11Z</time>
      </trkpt>
      <trkpt lat="60.245682075619698" lon="30.485872579738498">
        <ele>92.900000000000006</ele>
        <time>2026-08-29T12:39:42Z</time>
      </trkpt>
      <trkpt lat="60.245685093104839" lon="30.485852630808949">
        <ele>92.420000000000002</ele>
        <time>2026-08-29T12:40:04Z</time>
      </trkpt>
      <trkpt lat="60.245696911588311" lon="30.485883140936494">
        <ele>92.900000000000006</ele>
        <time>2026-08-29T12:40:20Z</time>
      </trkpt>
      <trkpt lat="60.245657935738564" lon="30.485882051289082">
        <ele>92.900000000000006</ele>
        <time>2026-08-29T12:40:51Z</time>
      </trkpt>
      <trkpt lat="60.245644021779299" lon="30.485864030197263">
        <ele>92.900000000000006</ele>
        <time>2026-08-29T12:41:14Z</time>
      </trkpt>
      <trkpt lat="60.245669083669782" lon="30.485861599445343">
        <ele>92.900000000000006</ele>
        <time>2026-08-29T12:41:34Z</time>
      </trkpt>
      <trkpt lat="60.245661120861769" lon="30.485837962478399">
        <ele>92.900000000000006</ele>
        <time>2026-08-29T12:42:03Z</time>
      </trkpt>
      <trkpt lat="60.245670508593321" lon="30.485817175358534">
        <ele>92.420000000000002</ele>
        <time>2026-08-29T12:42:23Z</time>
      </trkpt>
      <trkpt lat="60.245671011507511" lon="30.485799824818969">
        <ele>92.420000000000002</ele>
        <time>2026-08-29T12:42:34Z</time>
      </trkpt>
      <trkpt lat="60.245661288499832" lon="30.485811810940504">
        <ele>92.420000000000002</ele>
        <time>2026-08-29T12:42:36Z</time>
      </trkpt>
      <trkpt lat="60.245668161660433" lon="30.485823210328817">
        <ele>92.420000000000002</ele>
        <time>2026-08-29T12:42:51Z</time>
      </trkpt>
      <trkpt lat="60.245667491108179" lon="30.485833268612623">
        <ele>92.420000000000002</ele>
        <time>2026-08-29T12:43:40Z</time>
      </trkpt>
      <trkpt lat="60.245678890496492" lon="30.485847098752856">
        <ele>92.420000000000002</ele>
        <time>2026-08-29T12:43:53Z</time>
      </trkpt>
      <trkpt lat="60.245669921860099" lon="30.485892947763205">
        <ele>91.939999999999998</ele>
        <time>2026-08-29T12:44:27Z</time>
      </trkpt>
      <trkpt lat="60.245682913810015" lon="30.485887415707111">
        <ele>91.939999999999998</ele>
        <time>2026-08-29T12:44:56Z</time>
      </trkpt>
      <trkpt lat="60.245658941566944" lon="30.485868891701102">
        <ele>91.939999999999998</ele>
        <time>2026-08-29T12:45:31Z</time>
      </trkpt>
      <trkpt lat="60.245661037042737" lon="30.485875513404608">
        <ele>91.939999999999998</ele>
        <time>2026-08-29T12:45:53Z</time>
      </trkpt>
      <trkpt lat="60.245648631826043" lon="30.485869897529483">
        <ele>91.939999999999998</ele>
        <time>2026-08-29T12:46:23Z</time>
      </trkpt>
      <trkpt lat="60.245652906596661" lon="30.485927648842335">
        <ele>91.459999999999994</ele>
        <time>2026-08-29T12:46:47Z</time>
      </trkpt>
      <trkpt lat="60.245644692331553" lon="30.485880374908447">
        <ele>91.459999999999994</ele>
        <time>2026-08-29T12:47:01Z</time>
      </trkpt>
      <trkpt lat="60.245642932131886" lon="30.485855732113123">
        <ele>91.459999999999994</ele>
        <time>2026-08-29T12:47:23Z</time>
      </trkpt>
      <trkpt lat="60.245603788644075" lon="30.485860761255026">
        <ele>91.459999999999994</ele>
        <time>2026-08-29T12:47:48Z</time>
      </trkpt>
      <trkpt lat="60.24569146335125" lon="30.485888170078397">
        <ele>91.459999999999994</ele>
        <time>2026-08-29T12:48:12Z</time>
      </trkpt>
      <trkpt lat="60.245694061741233" lon="30.485903425142169">
        <ele>91.459999999999994</ele>
        <time>2026-08-29T12:48:34Z</time>
      </trkpt>
      <trkpt lat="60.245696911588311" lon="30.485862856730819">
        <ele>91.939999999999998</ele>
        <time>2026-08-29T12:48:56Z</time>
      </trkpt>
      <trkpt lat="60.245738234370947" lon="30.485859587788582">
        <ele>91.939999999999998</ele>
        <time>2026-08-29T12:49:27Z</time>
      </trkpt>
      <trkpt lat="60.245660953223705" lon="30.48575833439827">
        <ele>91.939999999999998</ele>
        <time>2026-08-29T12:49:52Z</time>
      </trkpt>
      <trkpt lat="60.245638154447079" lon="30.485795633867383">
        <ele>91.459999999999994</ele>
        <time>2026-08-29T12:50:18Z</time>
      </trkpt>
      <trkpt lat="60.245675286278129" lon="30.485813990235329">
        <ele>91.459999999999994</ele>
        <time>2026-08-29T12:50:37Z</time>
      </trkpt>
      <trkpt lat="60.245678387582302" lon="30.485889343544841">
        <ele>91.459999999999994</ele>
        <time>2026-08-29T12:51:11Z</time>
      </trkpt>
      <trkpt lat="60.245671179145575" lon="30.485885152593255">
        <ele>91.459999999999994</ele>
        <time>2026-08-29T12:51:12Z</time>
      </trkpt>
      <trkpt lat="60.24565190076828" lon="30.485794460400939">
        <ele>91.459999999999994</ele>
        <time>2026-08-29T12:51:54Z</time>
      </trkpt>
      <trkpt lat="60.245658438652754" lon="30.485801585018635">
        <ele>90.980000000000004</ele>
        <time>2026-08-29T12:52:57Z</time>
      </trkpt>
      <trkpt lat="60.245670676231384" lon="30.485782725736499">
        <ele>90.980000000000004</ele>
        <time>2026-08-29T12:53:37Z</time>
      </trkpt>
      <trkpt lat="60.245656091719866" lon="30.485805859789252">
        <ele>90.5</ele>
        <time>2026-08-29T12:54:09Z</time>
      </trkpt>
      <trkpt lat="60.245675034821033" lon="30.48586294054985">
        <ele>90.5</ele>
        <time>2026-08-29T12:54:50Z</time>
      </trkpt>
      <trkpt lat="60.245648045092821" lon="30.485829999670386">
        <ele>90.5</ele>
        <time>2026-08-29T12:56:01Z</time>
      </trkpt>
      <trkpt lat="60.245662210509181" lon="30.485826479271054">
        <ele>90.5</ele>
        <time>2026-08-29T12:56:29Z</time>
      </trkpt>
      <trkpt lat="60.245673777535558" lon="30.485845841467381">
        <ele>90.5</ele>
        <time>2026-08-29T12:57:01Z</time>
      </trkpt>
      <trkpt lat="60.245667323470116" lon="30.485812146216631">
        <ele>90.5</ele>
        <time>2026-08-29T12:57:26Z</time>
      </trkpt>
      <trkpt lat="60.245644524693489" lon="30.485806111246347">
        <ele>90.5</ele>
        <time>2026-08-29T12:57:49Z</time>
      </trkpt>
      <trkpt lat="60.24565139785409" lon="30.485825054347515">
        <ele>90.019999999999996</ele>
        <time>2026-08-29T12:58:08Z</time>
      </trkpt>
      <trkpt lat="60.245660282671452" lon="30.485793454572558">
        <ele>90.019999999999996</ele>
        <time>2026-08-29T12:58:29Z</time>
      </trkpt>
      <trkpt lat="60.245639411732554" lon="30.485790185630322">
        <ele>90.019999999999996</ele>
        <time>2026-08-29T12:59:03Z</time>
      </trkpt>
      <trkpt lat="60.245687775313854" lon="30.485908202826977">
        <ele>90.019999999999996</ele>
        <time>2026-08-29T12:59:31Z</time>
      </trkpt>
      <trkpt lat="60.245692552998662" lon="30.485860677435994">
        <ele>90.019999999999996</ele>
        <time>2026-08-29T12:59:53Z</time>
      </trkpt>
      <trkpt lat="60.245731025934219" lon="30.48585606738925">
        <ele>90.5</ele>
        <time>2026-08-29T13:00:13Z</time>
      </trkpt>
      <trkpt lat="60.245672352612019" lon="30.485840644687414">
        <ele>90.019999999999996</ele>
        <time>2026-08-29T13:00:42Z</time>
      </trkpt>
      <trkpt lat="60.2456871047616" lon="30.485904682427645">
        <ele>90.019999999999996</ele>
        <time>2026-08-29T13:01:05Z</time>
      </trkpt>
      <trkpt lat="60.245713843032718" lon="30.485853468999267">
        <ele>90.019999999999996</ele>
        <time>2026-08-29T13:01:12Z</time>
      </trkpt>
      <trkpt lat="60.245731361210346" lon="30.485843662172556">
        <ele>90.019999999999996</ele>
        <time>2026-08-29T13:01:25Z</time>
      </trkpt>
      <trkpt lat="60.245671346783638" lon="30.485847936943173">
        <ele>90.019999999999996</ele>
        <time>2026-08-29T13:01:56Z</time>
      </trkpt>
      <trkpt lat="60.245615104213357" lon="30.485851960256696">
        <ele>90.019999999999996</ele>
        <time>2026-08-29T13:02:23Z</time>
      </trkpt>
      <trkpt lat="60.24560839869082" lon="30.485882386565208">
        <ele>90.019999999999996</ele>
        <time>2026-08-29T13:02:49Z</time>
      </trkpt>
      <trkpt lat="60.245782742276788" lon="30.485867885872722">
        <ele>90.019999999999996</ele>
        <time>2026-08-29T13:03:27Z</time>
      </trkpt>
      <trkpt lat="60.245781652629375" lon="30.485875764861703">
        <ele>90.019999999999996</ele>
        <time>2026-08-29T13:03:52Z</time>
      </trkpt>
      <trkpt lat="60.245771342888474" lon="30.485834190621972">
        <ele>89.540000000000006</ele>
        <time>2026-08-29T13:04:08Z</time>
      </trkpt>
      <trkpt lat="60.245652738958597" lon="30.485843159258366">
        <ele>90.019999999999996</ele>
        <time>2026-08-29T13:05:06Z</time>
      </trkpt>
      <trkpt lat="60.245599849149585" lon="30.48584290780127">
        <ele>90.019999999999996</ele>
        <time>2026-08-29T13:05:37Z</time>
      </trkpt>
      <trkpt lat="60.245601190254092" lon="30.485840141773224">
        <ele>90.019999999999996</ele>
        <time>2026-08-29T13:06:11Z</time>
      </trkpt>
      <trkpt lat="60.245579062029719" lon="30.485817762091756">
        <ele>90.019999999999996</ele>
        <time>2026-08-29T13:06:41Z</time>
      </trkpt>
      <trkpt lat="60.24559716694057" lon="30.485842153429985">
        <ele>90.5</ele>
        <time>2026-08-29T13:06:50Z</time>
      </trkpt>
      <trkpt lat="60.245649302378297" lon="30.485821450129151">
        <ele>90.5</ele>
        <time>2026-08-29T13:07:03Z</time>
      </trkpt>
      <trkpt lat="60.245655421167612" lon="30.485839806497097">
        <ele>90.5</ele>
        <time>2026-08-29T13:07:15Z</time>
      </trkpt>
      <trkpt lat="60.245656175538898" lon="30.485813822597265">
        <ele>90.5</ele>
        <time>2026-08-29T13:07:36Z</time>
      </trkpt>
      <trkpt lat="60.245647039264441" lon="30.485807452350855">
        <ele>90.5</ele>
        <time>2026-08-29T13:07:56Z</time>
      </trkpt>
      <trkpt lat="60.245588952675462" lon="30.485809212550521">
        <ele>90.019999999999996</ele>
        <time>2026-08-29T13:08:14Z</time>
      </trkpt>
      <trkpt lat="60.245538074523211" lon="30.485718101263046">
        <ele>89.060000000000002</ele>
        <time>2026-08-29T13:08:26Z</time>
      </trkpt>
      <trkpt lat="60.245534470304847" lon="30.485642328858376">
        <ele>88.099999999999994</ele>
        <time>2026-08-29T13:08:40Z</time>
      </trkpt>
      <trkpt lat="60.245546456426382" lon="30.485652638599277">
        <ele>87.620000000000005</ele>
        <time>2026-08-29T13:08:58Z</time>
      </trkpt>
      <trkpt lat="60.24554637260735" lon="30.485705696046352">
        <ele>87.620000000000005</ele>
        <time>2026-08-29T13:09:21Z</time>
      </trkpt>
      <trkpt lat="60.245527680963278" lon="30.48568993806839">
        <ele>87.620000000000005</ele>
        <time>2026-08-29T13:09:42Z</time>
      </trkpt>
      <trkpt lat="60.245520640164614" lon="30.485715502873063">
        <ele>87.140000000000001</ele>
        <time>2026-08-29T13:10:10Z</time>
      </trkpt>
      <trkpt lat="60.245529441162944" lon="30.485645513981581">
        <ele>87.140000000000001</ele>
        <time>2026-08-29T13:10:24Z</time>
      </trkpt>
      <trkpt lat="60.245547294616699" lon="30.485479719936848">
        <ele>87.140000000000001</ele>
        <time>2026-08-29T13:10:39Z</time>
      </trkpt>
      <trkpt lat="60.245539667084813" lon="30.485437894240022">
        <ele>87.140000000000001</ele>
        <time>2026-08-29T13:10:51Z</time>
      </trkpt>
      <trkpt lat="60.245548551902175" lon="30.485360026359558">
        <ele>87.140000000000001</ele>
        <time>2026-08-29T13:11:01Z</time>
      </trkpt>
      <trkpt lat="60.245573194697499" lon="30.485080825164914">
        <ele>87.140000000000001</ele>
        <time>2026-08-29T13:11:18Z</time>
      </trkpt>
      <trkpt lat="60.245588617399335" lon="30.484929280355573">
        <ele>87.140000000000001</ele>
        <time>2026-08-29T13:11:36Z</time>
      </trkpt>
      <trkpt lat="60.245632622390985" lon="30.484802043065429">
        <ele>86.659999999999997</ele>
        <time>2026-08-29T13:11:49Z</time>
      </trkpt>
      <trkpt lat="60.245584258809686" lon="30.484696347266436">
        <ele>86.659999999999997</ele>
        <time>2026-08-29T13:12:08Z</time>
      </trkpt>
      <trkpt lat="60.245559699833393" lon="30.484676817432046">
        <ele>86.659999999999997</ele>
        <time>2026-08-29T13:12:12Z</time>
      </trkpt>
      <trkpt lat="60.245580906048417" lon="30.484694503247738">
        <ele>86.180000000000007</ele>
        <time>2026-08-29T13:12:33Z</time>
      </trkpt>
      <trkpt lat="60.245618959888816" lon="30.48470875248313">
        <ele>86.180000000000007</ele>
        <time>2026-08-29T13:12:38Z</time>
      </trkpt>
      <trkpt lat="60.245644692331553" lon="30.484624681994319">
        <ele>86.180000000000007</ele>
        <time>2026-08-29T13:12:44Z</time>
      </trkpt>
      <trkpt lat="60.245574787259102" lon="30.484379259869456">
        <ele>86.180000000000007</ele>
        <time>2026-08-29T13:12:57Z</time>
      </trkpt>
      <trkpt lat="60.245591215789318" lon="30.48442636616528">
        <ele>86.180000000000007</ele>
        <time>2026-08-29T13:13:05Z</time>
      </trkpt>
      <trkpt lat="60.245590377599001" lon="30.484506748616695">
        <ele>86.180000000000007</ele>
        <time>2026-08-29T13:13:17Z</time>
      </trkpt>
      <trkpt lat="60.245599346235394" lon="30.484452014788985">
        <ele>86.180000000000007</ele>
        <time>2026-08-29T13:13:20Z</time>
      </trkpt>
      <trkpt lat="60.245585851371288" lon="30.48407013528049">
        <ele>86.180000000000007</ele>
        <time>2026-08-29T13:13:35Z</time>
      </trkpt>
      <trkpt lat="60.245623318478465" lon="30.483880871906877">
        <ele>85.689999999999998</ele>
        <time>2026-08-29T13:13:48Z</time>
      </trkpt>
      <trkpt lat="60.245625665411353" lon="30.483904341235757">
        <ele>85.689999999999998</ele>
        <time>2026-08-29T13:13:49Z</time>
      </trkpt>
      <trkpt lat="60.245581744238734" lon="30.484084216877818">
        <ele>85.689999999999998</ele>
        <time>2026-08-29T13:14:05Z</time>
      </trkpt>
      <trkpt lat="60.245572524145246" lon="30.484062926843762">
        <ele>85.689999999999998</ele>
        <time>2026-08-29T13:14:16Z</time>
      </trkpt>
      <trkpt lat="60.245594820007682" lon="30.483756652101874">
        <ele>85.689999999999998</ele>
        <time>2026-08-29T13:14:31Z</time>
      </trkpt>
      <trkpt lat="60.245652655139565" lon="30.483392374590039">
        <ele>85.689999999999998</ele>
        <time>2026-08-29T13:14:49Z</time>
      </trkpt>
      <trkpt lat="60.245614349842072" lon="30.483335880562663">
        <ele>85.209999999999994</ele>
        <time>2026-08-29T13:15:07Z</time>
      </trkpt>
      <trkpt lat="60.245667742565274" lon="30.483291624113917">
        <ele>85.209999999999994</ele>
        <time>2026-08-29T13:15:23Z</time>
      </trkpt>
      <trkpt lat="60.245635891333222" lon="30.483337473124266">
        <ele>85.209999999999994</ele>
        <time>2026-08-29T13:15:35Z</time>
      </trkpt>
      <trkpt lat="60.245699593797326" lon="30.483209984377027">
        <ele>85.209999999999994</ele>
        <time>2026-08-29T13:15:46Z</time>
      </trkpt>
      <trkpt lat="60.245672101154923" lon="30.483119459822774">
        <ele>85.209999999999994</ele>
        <time>2026-08-29T13:15:58Z</time>
      </trkpt>
      <trkpt lat="60.245612002909184" lon="30.483086854219437">
        <ele>85.209999999999994</ele>
        <time>2026-08-29T13:16:05Z</time>
      </trkpt>
      <trkpt lat="60.245610997080803" lon="30.483040921390057">
        <ele>85.209999999999994</ele>
        <time>2026-08-29T13:16:16Z</time>
      </trkpt>
      <trkpt lat="60.24561719968915" lon="30.48276306129992">
        <ele>85.209999999999994</ele>
        <time>2026-08-29T13:16:28Z</time>
      </trkpt>
      <trkpt lat="60.24566849693656" lon="30.482612103223801">
        <ele>84.730000000000004</ele>
        <time>2026-08-29T13:16:45Z</time>
      </trkpt>
      <trkpt lat="60.245669167488813" lon="30.482626436278224">
        <ele>84.730000000000004</ele>
        <time>2026-08-29T13:16:47Z</time>
      </trkpt>
      <trkpt lat="60.245734881609678" lon="30.482648480683565">
        <ele>84.730000000000004</ele>
        <time>2026-08-29T13:17:10Z</time>
      </trkpt>
      <trkpt lat="60.245773019269109" lon="30.482635488733649">
        <ele>84.730000000000004</ele>
        <time>2026-08-29T13:17:19Z</time>
      </trkpt>
      <trkpt lat="60.245638405904174" lon="30.482626603916287">
        <ele>84.730000000000004</ele>
        <time>2026-08-29T13:17:37Z</time>
      </trkpt>
      <trkpt lat="60.245604962110519" lon="30.482618724927306">
        <ele>84.730000000000004</ele>
        <time>2026-08-29T13:17:44Z</time>
      </trkpt>
      <trkpt lat="60.245633292943239" lon="30.482633393257856">
        <ele>85.209999999999994</ele>
        <time>2026-08-29T13:17:59Z</time>
      </trkpt>
      <trkpt lat="60.245617032051086" lon="30.482543371617794">
        <ele>85.209999999999994</ele>
        <time>2026-08-29T13:18:25Z</time>
      </trkpt>
      <trkpt lat="60.245662713423371" lon="30.482708076015115">
        <ele>85.209999999999994</ele>
        <time>2026-08-29T13:18:46Z</time>
      </trkpt>
      <trkpt lat="60.245611164718866" lon="30.482640769332647">
        <ele>85.209999999999994</ele>
        <time>2026-08-29T13:19:04Z</time>
      </trkpt>
      <trkpt lat="60.245653996244073" lon="30.482740430161357">
        <ele>85.209999999999994</ele>
        <time>2026-08-29T13:19:26Z</time>
      </trkpt>
      <trkpt lat="60.245686518028378" lon="30.482718888670206">
        <ele>85.209999999999994</ele>
        <time>2026-08-29T13:19:30Z</time>
      </trkpt>
      <trkpt lat="60.245624659582973" lon="30.482550580054522">
        <ele>85.209999999999994</ele>
        <time>2026-08-29T13:19:53Z</time>
      </trkpt>
      <trkpt lat="60.24567729793489" lon="30.482498779892921">
        <ele>85.209999999999994</ele>
        <time>2026-08-29T13:20:44Z</time>
      </trkpt>
      <trkpt lat="60.245687188580632" lon="30.482499366626143">
        <ele>85.209999999999994</ele>
        <time>2026-08-29T13:20:45Z</time>
      </trkpt>
      <trkpt lat="60.245825909078121" lon="30.482703633606434">
        <ele>85.209999999999994</ele>
        <time>2026-08-29T13:20:56Z</time>
      </trkpt>
      <trkpt lat="60.245933532714844" lon="30.482835648581386">
        <ele>85.209999999999994</ele>
        <time>2026-08-29T13:21:08Z</time>
      </trkpt>
      <trkpt lat="60.24593772366643" lon="30.482847550883889">
        <ele>86.180000000000007</ele>
        <time>2026-08-29T13:21:12Z</time>
      </trkpt>
      <trkpt lat="60.24580143392086" lon="30.482712769880891">
        <ele>86.659999999999997</ele>
        <time>2026-08-29T13:21:28Z</time>
      </trkpt>
      <trkpt lat="60.245784418657422" lon="30.48270639963448">
        <ele>86.659999999999997</ele>
        <time>2026-08-29T13:21:42Z</time>
      </trkpt>
      <trkpt lat="60.245807971805334" lon="30.482731545343995">
        <ele>86.659999999999997</ele>
        <time>2026-08-29T13:21:50Z</time>
      </trkpt>
      <trkpt lat="60.245888018980622" lon="30.482823411002755">
        <ele>86.659999999999997</ele>
        <time>2026-08-29T13:22:13Z</time>
      </trkpt>
      <trkpt lat="60.245980890467763" lon="30.482825841754675">
        <ele>86.659999999999997</ele>
        <time>2026-08-29T13:22:38Z</time>
      </trkpt>
      <trkpt lat="60.245984075590968" lon="30.482904547825456">
        <ele>86.659999999999997</ele>
        <time>2026-08-29T13:22:45Z</time>
      </trkpt>
      <trkpt lat="60.245967730879784" lon="30.482854507863522">
        <ele>86.659999999999997</ele>
        <time>2026-08-29T13:23:03Z</time>
      </trkpt>
      <trkpt lat="60.24596756324172" lon="30.482828775420785">
        <ele>86.659999999999997</ele>
        <time>2026-08-29T13:23:05Z</time>
      </trkpt>
      <trkpt lat="60.245939902961254" lon="30.482843779027462">
        <ele>87.140000000000001</ele>
        <time>2026-08-29T13:23:27Z</time>
      </trkpt>
      <trkpt lat="60.245941411703825" lon="30.482865823432803">
        <ele>87.140000000000001</ele>
        <time>2026-08-29T13:23:31Z</time>
      </trkpt>
      <trkpt lat="60.245933281257749" lon="30.482922401279211">
        <ele>87.140000000000001</ele>
        <time>2026-08-29T13:23:44Z</time>
      </trkpt>
      <trkpt lat="60.245965300127864" lon="30.482911085709929">
        <ele>87.140000000000001</ele>
        <time>2026-08-29T13:24:15Z</time>
      </trkpt>
      <trkpt lat="60.245978124439716" lon="30.482919216156006">
        <ele>87.140000000000001</ele>
        <time>2026-08-29T13:24:28Z</time>
      </trkpt>
      <trkpt lat="60.246008550748229" lon="30.482918294146657">
        <ele>87.620000000000005</ele>
        <time>2026-08-29T13:24:55Z</time>
      </trkpt>
      <trkpt lat="60.245987260714173" lon="30.482842354103923">
        <ele>87.620000000000005</ele>
        <time>2026-08-29T13:25:23Z</time>
      </trkpt>
      <trkpt lat="60.245928838849068" lon="30.482912259176373">
        <ele>87.620000000000005</ele>
        <time>2026-08-29T13:25:40Z</time>
      </trkpt>
      <trkpt lat="60.245969323441386" lon="30.482969675213099">
        <ele>88.099999999999994</ele>
        <time>2026-08-29T13:26:07Z</time>
      </trkpt>
      <trkpt lat="60.245957756415009" lon="30.482929442077875">
        <ele>88.099999999999994</ele>
        <time>2026-08-29T13:26:28Z</time>
      </trkpt>
      <trkpt lat="60.245925821363926" lon="30.482898931950331">
        <ele>88.099999999999994</ele>
        <time>2026-08-29T13:26:53Z</time>
      </trkpt>
      <trkpt lat="60.245926408097148" lon="30.482994234189391">
        <ele>88.099999999999994</ele>
        <time>2026-08-29T13:27:10Z</time>
      </trkpt>
      <trkpt lat="60.245960941538215" lon="30.482974536716938">
        <ele>88.099999999999994</ele>
        <time>2026-08-29T13:27:27Z</time>
      </trkpt>
      <trkpt lat="60.245913751423359" lon="30.482974788174033">
        <ele>88.579999999999998</ele>
        <time>2026-08-29T13:27:53Z</time>
      </trkpt>
      <trkpt lat="60.245898831635714" lon="30.482955006882548">
        <ele>88.579999999999998</ele>
        <time>2026-08-29T13:28:22Z</time>
      </trkpt>
      <trkpt lat="60.245936634019017" lon="30.482956515625119">
        <ele>88.579999999999998</ele>
        <time>2026-08-29T13:28:38Z</time>
      </trkpt>
      <trkpt lat="60.245947279036045" lon="30.482971435412765">
        <ele>88.579999999999998</ele>
        <time>2026-08-29T13:28:41Z</time>
      </trkpt>
      <trkpt lat="60.245991284027696" lon="30.483043938875198">
        <ele>88.579999999999998</ele>
        <time>2026-08-29T13:28:47Z</time>
      </trkpt>
      <trkpt lat="60.246029756963253" lon="30.483067827299237">
        <ele>88.579999999999998</ele>
        <time>2026-08-29T13:28:50Z</time>
      </trkpt>
      <trkpt lat="60.24610972031951" lon="30.483230352401733">
        <ele>89.060000000000002</ele>
        <time>2026-08-29T13:29:00Z</time>
      </trkpt>
      <trkpt lat="60.246130842715502" lon="30.483306627720594">
        <ele>90.5</ele>
        <time>2026-08-29T13:29:04Z</time>
      </trkpt>
      <trkpt lat="60.246162777766585" lon="30.48354534432292">
        <ele>91.939999999999998</ele>
        <time>2026-08-29T13:29:16Z</time>
      </trkpt>
      <trkpt lat="60.246165292337537" lon="30.483587170019746">
        <ele>91.939999999999998</ele>
        <time>2026-08-29T13:29:18Z</time>
      </trkpt>
      <trkpt lat="60.246166214346886" lon="30.483695212751627">
        <ele>92.420000000000002</ele>
        <time>2026-08-29T13:29:23Z</time>
      </trkpt>
      <trkpt lat="60.246199993416667" lon="30.484016323462129">
        <ele>93.390000000000001</ele>
        <time>2026-08-29T13:29:36Z</time>
      </trkpt>
      <trkpt lat="60.246198903769255" lon="30.484120426699519">
        <ele>93.870000000000005</ele>
        <time>2026-08-29T13:29:42Z</time>
      </trkpt>
      <trkpt lat="60.246226564049721" lon="30.484261410310864">
        <ele>95.310000000000002</ele>
        <time>2026-08-29T13:29:52Z</time>
      </trkpt>
      <trkpt lat="60.246236538514495" lon="30.484429383650422">
        <ele>96.75</ele>
        <time>2026-08-29T13:30:13Z</time>
      </trkpt>
      <trkpt lat="60.246295714750886" lon="30.484642283990979">
        <ele>96.269999999999996</ele>
        <time>2026-08-29T13:30:31Z</time>
      </trkpt>
      <trkpt lat="60.246256906539202" lon="30.48487245105207">
        <ele>96.269999999999996</ele>
        <time>2026-08-29T13:30:50Z</time>
      </trkpt>
      <trkpt lat="60.246421443298459" lon="30.485353656113148">
        <ele>96.269999999999996</ele>
        <time>2026-08-29T13:31:13Z</time>
      </trkpt>
      <trkpt lat="60.246508782729506" lon="30.485841063782573">
        <ele>96.75</ele>
        <time>2026-08-29T13:31:32Z</time>
      </trkpt>
      <trkpt lat="60.246573826298118" lon="30.486265690997243">
        <ele>97.709999999999994</ele>
        <time>2026-08-29T13:31:51Z</time>
      </trkpt>
      <trkpt lat="60.246786307543516" lon="30.486656790599227">
        <ele>100.59999999999999</ele>
        <time>2026-08-29T13:32:17Z</time>
      </trkpt>
      <trkpt lat="60.246875323355198" lon="30.48674589022994">
        <ele>100.59999999999999</ele>
        <time>2026-08-29T13:32:38Z</time>
      </trkpt>
      <trkpt lat="60.247104316949844" lon="30.486984606832266">
        <ele>100.11</ele>
        <time>2026-08-29T13:32:57Z</time>
      </trkpt>
      <trkpt lat="60.247320150956511" lon="30.48710111528635">
        <ele>100.11</ele>
        <time>2026-08-29T13:33:13Z</time>
      </trkpt>
      <trkpt lat="60.247543528676033" lon="30.487181916832924">
        <ele>100.59999999999999</ele>
        <time>2026-08-29T13:33:30Z</time>
      </trkpt>
      <trkpt lat="60.247799176722765" lon="30.487261712551117">
        <ele>100.59999999999999</ele>
        <time>2026-08-29T13:33:50Z</time>
      </trkpt>
      <trkpt lat="60.248028421774507" lon="30.487448209896684">
        <ele>100.59999999999999</ele>
        <time>2026-08-29T13:34:07Z</time>
      </trkpt>
      <trkpt lat="60.248147863894701" lon="30.487703522667289">
        <ele>99.629999999999995</ele>
        <time>2026-08-29T13:34:19Z</time>
      </trkpt>
      <trkpt lat="60.248353220522404" lon="30.487999320030212">
        <ele>98.189999999999998</ele>
        <time>2026-08-29T13:34:37Z</time>
      </trkpt>
      <trkpt lat="60.248502921313047" lon="30.488205011934042">
        <ele>97.230000000000004</ele>
        <time>2026-08-29T13:34:52Z</time>
      </trkpt>
      <trkpt lat="60.248490013182163" lon="30.488363681361079">
        <ele>96.75</ele>
        <time>2026-08-29T13:35:21Z</time>
      </trkpt>
      <trkpt lat="60.248682461678982" lon="30.48856015317142">
        <ele>96.269999999999996</ele>
        <time>2026-08-29T13:35:41Z</time>
      </trkpt>
      <trkpt lat="60.248715318739414" lon="30.488733910024166">
        <ele>95.790000000000006</ele>
        <time>2026-08-29T13:36:01Z</time>
      </trkpt>
      <trkpt lat="60.248805591836572" lon="30.488836085423827">
        <ele>95.310000000000002</ele>
        <time>2026-08-29T13:36:18Z</time>
      </trkpt>
      <trkpt lat="60.248945485800505" lon="30.489011183381081">
        <ele>93.870000000000005</ele>
        <time>2026-08-29T13:36:35Z</time>
      </trkpt>
      <trkpt lat="60.249152015894651" lon="30.489474115893245">
        <ele>91.459999999999994</ele>
        <time>2026-08-29T13:37:00Z</time>
      </trkpt>
      <trkpt lat="60.249197864905" lon="30.489565478637815">
        <ele>90.019999999999996</ele>
        <time>2026-08-29T13:37:07Z</time>
      </trkpt>
      <trkpt lat="60.249239774420857" lon="30.489580566063523">
        <ele>89.540000000000006</ele>
        <time>2026-08-29T13:37:11Z</time>
      </trkpt>
      <trkpt lat="60.24942509829998" lon="30.489618452265859">
        <ele>88.579999999999998</ele>
        <time>2026-08-29T13:37:26Z</time>
      </trkpt>
      <trkpt lat="60.249497434124351" lon="30.489635970443487">
        <ele>88.099999999999994</ele>
        <time>2026-08-29T13:37:32Z</time>
      </trkpt>
      <trkpt lat="60.249562812969089" lon="30.489646447822452">
        <ele>87.140000000000001</ele>
        <time>2026-08-29T13:37:37Z</time>
      </trkpt>
      <trkpt lat="60.249741850420833" lon="30.489739486947656">
        <ele>86.659999999999997</ele>
        <time>2026-08-29T13:37:49Z</time>
      </trkpt>
      <trkpt lat="60.2499058842659" lon="30.48987653106451">
        <ele>85.689999999999998</ele>
        <time>2026-08-29T13:38:03Z</time>
      </trkpt>
      <trkpt lat="60.250090369954705" lon="30.490090604871511">
        <ele>85.209999999999994</ele>
        <time>2026-08-29T13:38:20Z</time>
      </trkpt>
      <trkpt lat="60.250257169827819" lon="30.490339966490865">
        <ele>85.209999999999994</ele>
        <time>2026-08-29T13:38:35Z</time>
      </trkpt>
      <trkpt lat="60.250457245856524" lon="30.490499641746283">
        <ele>84.730000000000004</ele>
        <time>2026-08-29T13:38:50Z</time>
      </trkpt>
      <trkpt lat="60.250554224476218" lon="30.49069544300437">
        <ele>84.730000000000004</ele>
        <time>2026-08-29T13:39:02Z</time>
      </trkpt>
      <trkpt lat="60.250738374888897" lon="30.490666776895523">
        <ele>84.730000000000004</ele>
        <time>2026-08-29T13:39:16Z</time>
      </trkpt>
      <trkpt lat="60.25091053918004" lon="30.490524787455797">
        <ele>85.689999999999998</ele>
        <time>2026-08-29T13:39:32Z</time>
      </trkpt>
      <trkpt lat="60.251066610217094" lon="30.490367375314236">
        <ele>85.689999999999998</ele>
        <time>2026-08-29T13:39:46Z</time>
      </trkpt>
      <trkpt lat="60.251195188611746" lon="30.490080378949642">
        <ele>85.689999999999998</ele>
        <time>2026-08-29T13:40:00Z</time>
      </trkpt>
      <trkpt lat="60.251331897452474" lon="30.489679304882884">
        <ele>86.180000000000007</ele>
        <time>2026-08-29T13:40:16Z</time>
      </trkpt>
      <trkpt lat="60.251538343727589" lon="30.489329528063536">
        <ele>85.689999999999998</ele>
        <time>2026-08-29T13:40:40Z</time>
      </trkpt>
      <trkpt lat="60.251700365915895" lon="30.489043202251196">
        <ele>85.689999999999998</ele>
        <time>2026-08-29T13:41:01Z</time>
      </trkpt>
      <trkpt lat="60.251921229064465" lon="30.488870115950704">
        <ele>86.180000000000007</ele>
        <time>2026-08-29T13:41:18Z</time>
      </trkpt>
      <trkpt lat="60.252155000343919" lon="30.488860225304961">
        <ele>86.659999999999997</ele>
        <time>2026-08-29T13:41:37Z</time>
      </trkpt>
      <trkpt lat="60.252403020858765" lon="30.488836420699954">
        <ele>86.180000000000007</ele>
        <time>2026-08-29T13:41:55Z</time>
      </trkpt>
      <trkpt lat="60.252735363319516" lon="30.488683199509978">
        <ele>86.180000000000007</ele>
        <time>2026-08-29T13:42:22Z</time>
      </trkpt>
      <trkpt lat="60.252945916727185" lon="30.488687809556723">
        <ele>85.209999999999994</ele>
        <time>2026-08-29T13:42:39Z</time>
      </trkpt>
      <trkpt lat="60.253128977492452" lon="30.488651599735022">
        <ele>84.730000000000004</ele>
        <time>2026-08-29T13:42:52Z</time>
      </trkpt>
      <trkpt lat="60.25333609431982" lon="30.488476250320673">
        <ele>83.290000000000006</ele>
        <time>2026-08-29T13:43:07Z</time>
      </trkpt>
      <trkpt lat="60.253522675484419" lon="30.488279359415174">
        <ele>82.329999999999998</ele>
        <time>2026-08-29T13:43:24Z</time>
      </trkpt>
      <trkpt lat="60.253698443993926" lon="30.488120103254914">
        <ele>81.370000000000005</ele>
        <time>2026-08-29T13:43:41Z</time>
      </trkpt>
      <trkpt lat="60.253857113420963" lon="30.487938215956092">
        <ele>81.370000000000005</ele>
        <time>2026-08-29T13:43:58Z</time>
      </trkpt>
      <trkpt lat="60.2540123462677" lon="30.487914411351085">
        <ele>81.370000000000005</ele>
        <time>2026-08-29T13:44:12Z</time>
      </trkpt>
      <trkpt lat="60.254169255495071" lon="30.487924553453922">
        <ele>80.890000000000001</ele>
        <time>2026-08-29T13:44:24Z</time>
      </trkpt>
      <trkpt lat="60.254364972934127" lon="30.487934025004506">
        <ele>80.890000000000001</ele>
        <time>2026-08-29T13:44:39Z</time>
      </trkpt>
      <trkpt lat="60.25439984165132" lon="30.48792983405292">
        <ele>80.890000000000001</ele>
        <time>2026-08-29T13:44:42Z</time>
      </trkpt>
      <trkpt lat="60.254631182178855" lon="30.487946849316359">
        <ele>80.890000000000001</ele>
        <time>2026-08-29T13:44:57Z</time>
      </trkpt>
      <trkpt lat="60.254752719774842" lon="30.487967971712351">
        <ele>80.890000000000001</ele>
        <time>2026-08-29T13:45:07Z</time>
      </trkpt>
    </trkseg>
  </trk>

</gpx>